UAE2698 VHHH-KLAX
Flight info
| Callsign | UAE2698 |
|---|---|
| Flight time | N/A |
| Altitude | 33000 |
| Route | DALOL V631 ENVAR M750 MUKEP Y891 OVSUN/N0487F340 Y893 IGMIS/N0486F330 Y57 POROT Y809 IDLAN Y812 ADNAP OTR5 KALNA/N0486F350 DCT 41N160E 41N170E 41N180E 39N170W 36N160W/N0470F370 34N150W 33N145W 33N140W DCT CUNDU DCT ADUMM DCT AUDIA DCT SNAXX RYDRR2 |
| Aircraft | B77W/H-SDE1E2E3FGHIJ2J3J4J5M1RWXY/LB1D1 |
Departure
| Time | N/A |
|---|---|
| Airport | Hong Kong International Airport (VHHH) |
Arrival
| Time | 2026-05-05 07:24 |
|---|---|
| Airport | Los Angeles International Airport (KLAX) |
| Time | Latitude | Longitude | Altitude | Speed | Heading |
|---|---|---|---|---|---|
| 2026-05-04 20:51 | 27.52052 | 125.16365 | 32997 ft | 522 kts | 48° |
| 2026-05-04 20:51 | 27.56647 | 125.22602 | 32997 ft | 522 kts | 49° |
| 2026-05-04 20:52 | 27.61285 | 125.28908 | 32997 ft | 522 kts | 49° |
| 2026-05-04 20:52 | 27.65928 | 125.35172 | 32997 ft | 521 kts | 48° |
| 2026-05-04 20:53 | 27.70574 | 125.41463 | 32997 ft | 521 kts | 48° |
| 2026-05-04 20:53 | 27.75211 | 125.47766 | 32997 ft | 522 kts | 49° |
| 2026-05-04 20:54 | 27.79807 | 125.54029 | 32997 ft | 522 kts | 49° |
| 2026-05-04 20:54 | 27.84432 | 125.60342 | 32997 ft | 522 kts | 49° |
| 2026-05-04 20:55 | 27.89054 | 125.66661 | 32997 ft | 522 kts | 49° |
| 2026-05-04 20:55 | 27.93680 | 125.72994 | 32997 ft | 522 kts | 49° |
| 2026-05-04 20:56 | 27.98265 | 125.79282 | 32997 ft | 522 kts | 49° |
| 2026-05-04 20:56 | 28.02876 | 125.85613 | 32997 ft | 522 kts | 49° |
| 2026-05-04 20:57 | 28.07485 | 125.91953 | 32997 ft | 522 kts | 49° |
| 2026-05-04 20:57 | 28.12090 | 125.98296 | 32997 ft | 522 kts | 49° |
| 2026-05-04 20:58 | 28.16702 | 126.04657 | 32997 ft | 522 kts | 49° |
| 2026-05-04 20:58 | 28.21297 | 126.11006 | 32997 ft | 522 kts | 49° |
| 2026-05-04 20:59 | 28.25871 | 126.17335 | 32997 ft | 522 kts | 49° |
| 2026-05-04 20:59 | 28.30469 | 126.23706 | 32997 ft | 522 kts | 49° |
| 2026-05-04 21:00 | 28.35062 | 126.30079 | 32997 ft | 522 kts | 49° |
| 2026-05-04 21:00 | 28.39623 | 126.36419 | 32997 ft | 522 kts | 49° |
| 2026-05-04 21:01 | 28.44240 | 126.42846 | 32997 ft | 522 kts | 49° |
| 2026-05-04 21:01 | 28.48822 | 126.49233 | 32997 ft | 522 kts | 49° |
| 2026-05-04 21:02 | 28.53409 | 126.55637 | 32997 ft | 522 kts | 49° |
| 2026-05-04 21:02 | 28.57953 | 126.61991 | 32997 ft | 522 kts | 49° |
| 2026-05-04 21:03 | 28.62526 | 126.68396 | 32997 ft | 522 kts | 49° |
| 2026-05-04 21:03 | 28.67101 | 126.74812 | 32997 ft | 522 kts | 49° |
| 2026-05-04 21:04 | 28.71670 | 126.81230 | 32997 ft | 522 kts | 49° |
| 2026-05-04 21:04 | 28.76241 | 126.87661 | 32997 ft | 522 kts | 49° |
| 2026-05-04 21:05 | 28.80808 | 126.94097 | 32997 ft | 522 kts | 49° |
| 2026-05-04 21:05 | 28.85365 | 127.00529 | 32997 ft | 522 kts | 49° |
| 2026-05-04 21:06 | 28.89893 | 127.06928 | 32997 ft | 522 kts | 49° |
| 2026-05-04 21:06 | 28.94451 | 127.13380 | 32997 ft | 522 kts | 49° |
| 2026-05-04 21:07 | 28.99004 | 127.19837 | 32997 ft | 522 kts | 49° |
| 2026-05-04 21:07 | 29.03555 | 127.26299 | 32997 ft | 522 kts | 49° |
| 2026-05-04 21:08 | 29.08102 | 127.32766 | 32997 ft | 522 kts | 49° |
| 2026-05-04 21:08 | 29.12609 | 127.39187 | 32997 ft | 522 kts | 49° |
| 2026-05-04 21:09 | 29.17152 | 127.45668 | 32997 ft | 522 kts | 49° |
| 2026-05-04 21:09 | 29.21689 | 127.52152 | 32997 ft | 522 kts | 50° |
| 2026-05-04 21:10 | 29.26226 | 127.58645 | 32997 ft | 522 kts | 50° |
| 2026-05-04 21:10 | 29.30757 | 127.65139 | 32997 ft | 522 kts | 50° |
| 2026-05-04 21:11 | 29.35292 | 127.71619 | 32997 ft | 522 kts | 49° |
| 2026-05-04 21:11 | 29.39790 | 127.78084 | 32997 ft | 522 kts | 50° |
| 2026-05-04 21:12 | 29.44306 | 127.84605 | 32997 ft | 522 kts | 50° |
| 2026-05-04 21:12 | 29.48820 | 127.91131 | 32997 ft | 522 kts | 50° |
| 2026-05-04 21:13 | 29.53304 | 127.97614 | 32997 ft | 522 kts | 50° |
| 2026-05-04 21:13 | 29.57814 | 128.04136 | 32997 ft | 522 kts | 50° |
| 2026-05-04 21:14 | 29.62326 | 128.10682 | 32997 ft | 522 kts | 50° |
| 2026-05-04 21:14 | 29.66829 | 128.17228 | 32997 ft | 522 kts | 50° |
| 2026-05-04 21:15 | 29.71328 | 128.23778 | 32997 ft | 522 kts | 50° |
| 2026-05-04 21:15 | 29.75806 | 128.30282 | 32997 ft | 522 kts | 50° |
| 2026-05-04 21:16 | 29.80329 | 128.36827 | 32997 ft | 522 kts | 50° |
| 2026-05-04 21:16 | 29.84830 | 128.43384 | 32997 ft | 522 kts | 50° |
| 2026-05-04 21:17 | 29.89323 | 128.49946 | 32997 ft | 522 kts | 50° |
| 2026-05-04 21:17 | 29.93789 | 128.56483 | 32997 ft | 522 kts | 50° |
| 2026-05-04 21:18 | 29.98273 | 128.63057 | 32997 ft | 522 kts | 50° |
| 2026-05-04 21:18 | 30.02759 | 128.69644 | 32997 ft | 522 kts | 50° |
| 2026-05-04 21:19 | 30.07261 | 128.76225 | 32996 ft | 522 kts | 50° |
| 2026-05-04 21:19 | 30.11735 | 128.82824 | 32997 ft | 522 kts | 50° |
| 2026-05-04 21:20 | 30.16170 | 128.89386 | 32997 ft | 522 kts | 50° |
| 2026-05-04 21:20 | 30.20638 | 128.96003 | 32997 ft | 522 kts | 50° |
| 2026-05-04 21:21 | 30.25109 | 129.02623 | 32997 ft | 522 kts | 50° |
| 2026-05-04 21:21 | 30.29574 | 129.09255 | 32997 ft | 522 kts | 50° |
| 2026-05-04 21:22 | 30.34024 | 129.15883 | 32997 ft | 522 kts | 50° |
| 2026-05-04 21:22 | 30.38476 | 129.22525 | 32997 ft | 522 kts | 50° |
| 2026-05-04 21:23 | 30.42895 | 129.29128 | 32997 ft | 522 kts | 50° |
| 2026-05-04 21:23 | 30.47360 | 129.35760 | 32997 ft | 522 kts | 50° |
| 2026-05-04 21:24 | 30.51821 | 129.42401 | 32997 ft | 522 kts | 50° |
| 2026-05-04 21:24 | 30.56272 | 129.49060 | 32997 ft | 522 kts | 50° |
| 2026-05-04 21:25 | 30.60723 | 129.55737 | 32997 ft | 522 kts | 50° |
| 2026-05-04 21:25 | 30.65158 | 129.62397 | 32998 ft | 522 kts | 50° |
| 2026-05-04 21:26 | 30.69588 | 129.69025 | 32997 ft | 522 kts | 51° |
| 2026-05-04 21:26 | 30.74011 | 129.75705 | 32997 ft | 522 kts | 51° |
| 2026-05-04 21:27 | 30.78434 | 129.82405 | 32997 ft | 522 kts | 51° |
| 2026-05-04 21:27 | 30.82828 | 129.89062 | 32997 ft | 522 kts | 51° |
| 2026-05-04 21:28 | 30.87032 | 129.95948 | 32998 ft | 523 kts | 56° |
| 2026-05-04 21:28 | 30.90828 | 130.03181 | 32997 ft | 524 kts | 58° |
| 2026-05-04 21:29 | 30.94568 | 130.10482 | 32997 ft | 524 kts | 57° |
| 2026-05-04 21:29 | 30.98359 | 130.17728 | 32997 ft | 524 kts | 57° |
| 2026-05-04 21:30 | 31.02142 | 130.24920 | 32997 ft | 524 kts | 57° |
| 2026-05-04 21:30 | 31.05978 | 130.32129 | 32997 ft | 524 kts | 57° |
| 2026-05-04 21:31 | 31.11716 | 130.42977 | 32997 ft | 524 kts | 57° |
| 2026-05-04 21:32 | 31.15527 | 130.50220 | 32997 ft | 524 kts | 57° |
| 2026-05-04 21:32 | 31.19332 | 130.57470 | 32997 ft | 524 kts | 57° |
| 2026-05-04 21:33 | 31.23112 | 130.64685 | 32997 ft | 524 kts | 57° |
| 2026-05-04 21:33 | 31.26911 | 130.71952 | 32997 ft | 524 kts | 57° |
| 2026-05-04 21:34 | 31.30701 | 130.79216 | 32997 ft | 524 kts | 57° |
| 2026-05-04 21:34 | 31.34492 | 130.86494 | 32997 ft | 524 kts | 57° |
| 2026-05-04 21:35 | 31.38278 | 130.93776 | 32997 ft | 524 kts | 57° |
| 2026-05-04 21:35 | 31.42057 | 131.01060 | 32997 ft | 524 kts | 57° |
| 2026-05-04 21:36 | 31.45826 | 131.08295 | 32997 ft | 524 kts | 57° |
| 2026-05-04 21:36 | 31.49607 | 131.15597 | 32997 ft | 524 kts | 57° |
| 2026-05-04 21:37 | 31.53364 | 131.22903 | 32997 ft | 524 kts | 57° |
| 2026-05-04 21:37 | 31.57119 | 131.30217 | 32997 ft | 524 kts | 57° |
| 2026-05-04 21:38 | 31.60886 | 131.37542 | 32997 ft | 524 kts | 57° |
| 2026-05-04 21:38 | 31.64644 | 131.44866 | 32997 ft | 524 kts | 58° |
| 2026-05-04 21:39 | 31.68373 | 131.52210 | 32997 ft | 524 kts | 58° |
| 2026-05-04 21:39 | 31.72106 | 131.59562 | 32997 ft | 524 kts | 58° |
| 2026-05-04 21:40 | 31.75806 | 131.66858 | 32997 ft | 524 kts | 58° |
| 2026-05-04 21:40 | 31.79546 | 131.74213 | 32997 ft | 524 kts | 57° |
| 2026-05-04 21:41 | 31.83296 | 131.81540 | 32997 ft | 524 kts | 58° |
| 2026-05-04 21:41 | 31.87034 | 131.88909 | 32997 ft | 524 kts | 58° |
| 2026-05-04 21:42 | 31.90735 | 131.96231 | 32997 ft | 524 kts | 58° |
| 2026-05-04 21:42 | 31.94454 | 132.03605 | 32997 ft | 524 kts | 58° |
| 2026-05-04 21:43 | 31.98183 | 132.10968 | 32997 ft | 524 kts | 58° |
| 2026-05-04 21:43 | 32.01871 | 132.18301 | 32997 ft | 524 kts | 58° |
| 2026-05-04 21:44 | 32.05570 | 132.25704 | 32997 ft | 524 kts | 58° |
| 2026-05-04 21:44 | 32.09264 | 132.33110 | 32997 ft | 524 kts | 58° |
| 2026-05-04 21:45 | 32.12951 | 132.40530 | 32997 ft | 524 kts | 59° |
| 2026-05-04 21:45 | 32.16307 | 132.48168 | 32997 ft | 525 kts | 63° |
| 2026-05-04 21:46 | 32.19451 | 132.55886 | 32997 ft | 525 kts | 63° |
| 2026-05-04 21:46 | 32.22683 | 132.63663 | 32997 ft | 525 kts | 62° |
| 2026-05-04 21:47 | 32.25902 | 132.71339 | 32997 ft | 525 kts | 62° |
| 2026-05-04 21:47 | 32.29157 | 132.79057 | 32997 ft | 525 kts | 62° |
| 2026-05-04 21:48 | 32.32431 | 132.86771 | 32997 ft | 525 kts | 62° |
| 2026-05-04 21:48 | 32.35680 | 132.94501 | 32997 ft | 525 kts | 62° |
| 2026-05-04 21:49 | 32.38921 | 133.02241 | 32997 ft | 525 kts | 62° |
| 2026-05-04 21:49 | 32.42157 | 133.09988 | 32997 ft | 525 kts | 62° |
| 2026-05-04 21:50 | 32.45387 | 133.17666 | 32997 ft | 525 kts | 62° |
| 2026-05-04 21:50 | 32.48626 | 133.25475 | 32997 ft | 525 kts | 63° |
| 2026-05-04 21:51 | 32.51811 | 133.33182 | 32997 ft | 525 kts | 63° |
| 2026-05-04 21:51 | 32.55022 | 133.40960 | 32997 ft | 525 kts | 63° |
| 2026-05-04 21:52 | 32.58248 | 133.48712 | 32997 ft | 525 kts | 62° |
| 2026-05-04 21:52 | 32.61481 | 133.56478 | 32997 ft | 525 kts | 62° |
| 2026-05-04 21:53 | 32.64698 | 133.64257 | 32997 ft | 525 kts | 63° |
| 2026-05-04 21:53 | 32.67870 | 133.72045 | 32997 ft | 525 kts | 63° |
| 2026-05-04 21:54 | 32.71064 | 133.79789 | 32997 ft | 525 kts | 63° |
| 2026-05-04 21:54 | 32.74240 | 133.87600 | 32997 ft | 525 kts | 63° |
| 2026-05-04 21:55 | 32.77402 | 133.95421 | 32997 ft | 525 kts | 63° |
| 2026-05-04 21:55 | 32.80561 | 134.03240 | 32997 ft | 525 kts | 63° |
| 2026-05-04 21:56 | 32.83247 | 134.11255 | 32999 ft | 526 kts | 71° |
| 2026-05-04 21:56 | 32.85334 | 134.19587 | 32996 ft | 527 kts | 73° |
| 2026-05-04 21:57 | 32.87352 | 134.27954 | 32997 ft | 526 kts | 73° |
| 2026-05-04 21:57 | 32.89412 | 134.36320 | 32997 ft | 526 kts | 73° |
| 2026-05-04 21:58 | 32.91486 | 134.44665 | 32996 ft | 526 kts | 72° |
| 2026-05-04 21:58 | 32.93589 | 134.52961 | 32997 ft | 526 kts | 73° |
| 2026-05-04 21:59 | 32.95640 | 134.61325 | 32997 ft | 526 kts | 73° |
| 2026-05-04 21:59 | 32.97682 | 134.69696 | 32997 ft | 526 kts | 73° |
| 2026-05-04 22:00 | 32.99675 | 134.78087 | 32998 ft | 527 kts | 76° |
| 2026-05-04 22:00 | 33.00951 | 134.86632 | 32997 ft | 527 kts | 82° |
| 2026-05-04 22:01 | 33.01815 | 134.95295 | 32997 ft | 527 kts | 83° |
| 2026-05-04 22:01 | 33.02735 | 135.03971 | 32997 ft | 527 kts | 82° |
| 2026-05-04 22:02 | 33.03666 | 135.12631 | 32997 ft | 527 kts | 82° |
| 2026-05-04 22:02 | 33.04589 | 135.21251 | 32997 ft | 527 kts | 82° |
| 2026-05-04 22:03 | 33.05533 | 135.29921 | 32998 ft | 527 kts | 82° |
| 2026-05-04 22:03 | 33.06450 | 135.38593 | 32997 ft | 527 kts | 82° |
| 2026-05-04 22:04 | 33.07345 | 135.47270 | 32997 ft | 527 kts | 83° |
| 2026-05-04 22:04 | 33.08236 | 135.55942 | 32997 ft | 527 kts | 83° |
| 2026-05-04 22:05 | 33.09122 | 135.64564 | 32997 ft | 527 kts | 83° |
| 2026-05-04 22:05 | 33.10001 | 135.73250 | 32997 ft | 527 kts | 83° |
| 2026-05-04 22:06 | 33.10869 | 135.81925 | 32997 ft | 527 kts | 83° |
| 2026-05-04 22:06 | 33.11732 | 135.90612 | 32997 ft | 527 kts | 83° |
| 2026-05-04 22:07 | 33.12584 | 135.99244 | 32997 ft | 527 kts | 83° |
| 2026-05-04 22:07 | 33.13465 | 136.07925 | 32996 ft | 527 kts | 82° |
| 2026-05-04 22:08 | 33.14365 | 136.16611 | 32997 ft | 527 kts | 82° |
| 2026-05-04 22:08 | 33.15231 | 136.25304 | 32997 ft | 527 kts | 83° |
| 2026-05-04 22:09 | 33.16062 | 136.33993 | 32997 ft | 527 kts | 83° |
| 2026-05-04 22:09 | 33.16886 | 136.42642 | 32997 ft | 527 kts | 83° |
| 2026-05-04 22:10 | 33.17714 | 136.51337 | 32997 ft | 527 kts | 83° |
| 2026-05-04 22:10 | 33.18542 | 136.60035 | 32997 ft | 527 kts | 83° |
| 2026-05-04 22:11 | 33.19361 | 136.68726 | 32997 ft | 527 kts | 83° |
| 2026-05-04 22:11 | 33.20218 | 136.77426 | 32998 ft | 527 kts | 83° |
| 2026-05-04 22:12 | 33.21039 | 136.86068 | 32997 ft | 527 kts | 83° |
| 2026-05-04 22:12 | 33.21837 | 136.94773 | 32997 ft | 527 kts | 83° |
| 2026-05-04 22:13 | 33.22632 | 137.03477 | 32997 ft | 527 kts | 83° |
| 2026-05-04 22:13 | 33.23852 | 137.12096 | 32997 ft | 527 kts | 75° |
| 2026-05-04 22:14 | 33.25834 | 137.20522 | 32997 ft | 526 kts | 72° |
| 2026-05-04 22:14 | 33.27966 | 137.28893 | 32997 ft | 526 kts | 72° |
| 2026-05-04 22:15 | 33.30052 | 137.37270 | 32997 ft | 526 kts | 72° |
| 2026-05-04 22:15 | 33.32125 | 137.45662 | 32997 ft | 526 kts | 73° |
| 2026-05-04 22:16 | 33.34223 | 137.54057 | 32997 ft | 526 kts | 72° |
| 2026-05-04 22:16 | 33.36329 | 137.62379 | 32997 ft | 526 kts | 72° |
| 2026-05-04 22:17 | 33.38388 | 137.70788 | 32997 ft | 526 kts | 73° |
| 2026-05-04 22:17 | 33.40434 | 137.79197 | 32997 ft | 526 kts | 73° |
| 2026-05-04 22:18 | 33.42553 | 137.87591 | 32998 ft | 526 kts | 70° |
| 2026-05-04 22:18 | 33.45346 | 137.95640 | 32999 ft | 524 kts | 58° |
| 2026-05-04 22:19 | 33.49317 | 138.02873 | 32999 ft | 523 kts | 54° |
| 2026-05-04 22:19 | 33.53199 | 138.10256 | 32998 ft | 524 kts | 57° |
| 2026-05-04 22:20 | 33.56996 | 138.17705 | 32996 ft | 524 kts | 57° |
| 2026-05-04 22:20 | 33.60806 | 138.25096 | 32997 ft | 524 kts | 57° |
| 2026-05-04 22:21 | 33.64622 | 138.32592 | 32997 ft | 524 kts | 57° |
| 2026-05-04 22:21 | 33.68389 | 138.40019 | 32997 ft | 524 kts | 57° |
| 2026-05-04 22:22 | 33.72175 | 138.47487 | 32997 ft | 524 kts | 57° |
| 2026-05-04 22:22 | 33.75966 | 138.54968 | 32997 ft | 524 kts | 57° |
| 2026-05-04 22:23 | 33.79744 | 138.62453 | 32997 ft | 524 kts | 57° |
| 2026-05-04 22:23 | 33.83490 | 138.69894 | 32997 ft | 524 kts | 57° |
| 2026-05-04 22:24 | 33.87251 | 138.77379 | 32997 ft | 524 kts | 57° |
| 2026-05-04 22:24 | 33.91013 | 138.84880 | 32997 ft | 524 kts | 57° |
| 2026-05-04 22:25 | 33.94804 | 138.92363 | 32997 ft | 524 kts | 57° |
| 2026-05-04 22:25 | 33.98596 | 138.99846 | 32997 ft | 524 kts | 57° |
| 2026-05-04 22:26 | 34.02362 | 139.07381 | 32997 ft | 524 kts | 57° |
| 2026-05-04 22:26 | 34.06079 | 139.14860 | 32997 ft | 524 kts | 57° |
| 2026-05-04 22:27 | 34.09818 | 139.22393 | 32997 ft | 524 kts | 57° |
| 2026-05-04 22:27 | 34.13567 | 139.29944 | 32997 ft | 524 kts | 57° |
| 2026-05-04 22:28 | 34.17302 | 139.37488 | 32997 ft | 524 kts | 58° |
| 2026-05-04 22:28 | 34.20406 | 139.43780 | 32997 ft | 524 kts | 58° |
| 2026-05-04 22:29 | 34.24731 | 139.52570 | 32997 ft | 524 kts | 58° |
| 2026-05-04 22:29 | 34.28448 | 139.60140 | 32997 ft | 524 kts | 58° |
| 2026-05-04 22:30 | 34.31554 | 139.66437 | 32997 ft | 524 kts | 57° |
| 2026-05-04 22:30 | 34.35930 | 139.75271 | 32997 ft | 524 kts | 58° |
| 2026-05-04 22:31 | 34.39025 | 139.81574 | 32997 ft | 524 kts | 58° |
| 2026-05-04 22:31 | 34.43339 | 139.90395 | 32997 ft | 524 kts | 58° |
| 2026-05-04 22:32 | 34.46238 | 139.96336 | 32997 ft | 524 kts | 58° |
| 2026-05-04 22:32 | 34.49942 | 140.03942 | 32997 ft | 524 kts | 58° |
| 2026-05-04 22:33 | 34.53641 | 140.11550 | 32997 ft | 524 kts | 58° |
| 2026-05-04 22:33 | 34.57358 | 140.19151 | 32997 ft | 524 kts | 58° |
| 2026-05-04 22:34 | 34.61041 | 140.26785 | 32997 ft | 524 kts | 58° |
| 2026-05-04 22:34 | 34.64693 | 140.34378 | 32997 ft | 524 kts | 58° |
| 2026-05-04 22:35 | 34.68368 | 140.42023 | 32997 ft | 524 kts | 58° |
| 2026-05-04 22:35 | 34.71993 | 140.49705 | 32997 ft | 524 kts | 59° |
| 2026-05-04 22:36 | 34.75536 | 140.57459 | 32997 ft | 524 kts | 59° |
| 2026-05-04 22:36 | 34.79046 | 140.65152 | 32997 ft | 524 kts | 59° |
| 2026-05-04 22:37 | 34.82585 | 140.72919 | 32997 ft | 524 kts | 59° |
| 2026-05-04 22:37 | 34.86116 | 140.80681 | 32997 ft | 524 kts | 59° |
| 2026-05-04 22:38 | 34.89685 | 140.88421 | 32997 ft | 524 kts | 59° |
| 2026-05-04 22:38 | 34.93221 | 140.96128 | 32997 ft | 524 kts | 59° |
| 2026-05-04 22:39 | 34.96760 | 141.03897 | 32997 ft | 524 kts | 59° |
| 2026-05-04 22:39 | 35.00291 | 141.11678 | 32997 ft | 524 kts | 59° |
| 2026-05-04 22:40 | 35.03810 | 141.19456 | 32997 ft | 524 kts | 60° |
| 2026-05-04 22:40 | 35.07332 | 141.27257 | 32997 ft | 524 kts | 60° |
| 2026-05-04 22:41 | 35.10845 | 141.35057 | 32997 ft | 524 kts | 60° |
| 2026-05-04 22:41 | 35.14329 | 141.42810 | 32997 ft | 524 kts | 60° |
| 2026-05-04 22:42 | 35.17829 | 141.50616 | 32997 ft | 524 kts | 60° |
| 2026-05-04 22:42 | 35.21333 | 141.58451 | 32997 ft | 524 kts | 60° |
| 2026-05-04 22:43 | 35.24829 | 141.66284 | 32997 ft | 524 kts | 60° |
| 2026-05-04 22:43 | 35.28295 | 141.74067 | 32997 ft | 524 kts | 60° |
| 2026-05-04 22:44 | 35.31775 | 141.81903 | 32997 ft | 524 kts | 60° |
| 2026-05-04 22:44 | 35.35255 | 141.89753 | 32997 ft | 524 kts | 60° |
| 2026-05-04 22:45 | 35.38730 | 141.97613 | 32997 ft | 524 kts | 60° |
| 2026-05-04 22:45 | 35.43928 | 142.09404 | 32997 ft | 524 kts | 60° |
| 2026-05-04 22:46 | 35.47392 | 142.17282 | 32997 ft | 524 kts | 60° |
| 2026-05-04 22:46 | 35.50848 | 142.25162 | 32997 ft | 524 kts | 60° |
| 2026-05-04 22:47 | 35.54280 | 142.33005 | 32997 ft | 524 kts | 60° |
| 2026-05-04 22:47 | 35.57721 | 142.40890 | 32997 ft | 524 kts | 60° |
| 2026-05-04 22:48 | 35.61163 | 142.48793 | 32997 ft | 524 kts | 60° |
| 2026-05-04 22:48 | 35.64599 | 142.56700 | 32997 ft | 524 kts | 60° |
| 2026-05-04 22:49 | 35.68031 | 142.64618 | 32997 ft | 524 kts | 60° |
| 2026-05-04 22:49 | 35.71453 | 142.72531 | 32997 ft | 524 kts | 60° |
| 2026-05-04 22:50 | 35.74875 | 142.80465 | 32997 ft | 524 kts | 60° |
| 2026-05-04 22:50 | 35.78269 | 142.88345 | 32996 ft | 524 kts | 60° |
| 2026-05-04 22:51 | 35.81706 | 142.96273 | 32997 ft | 524 kts | 61° |
| 2026-05-04 22:51 | 35.85102 | 143.04228 | 32997 ft | 525 kts | 61° |
| 2026-05-04 22:52 | 35.88492 | 143.12194 | 32997 ft | 525 kts | 61° |
| 2026-05-04 22:52 | 35.91667 | 143.20296 | 32997 ft | 526 kts | 68° |
| 2026-05-04 22:53 | 35.93734 | 143.28960 | 32999 ft | 527 kts | 78° |
| 2026-05-04 22:53 | 35.94622 | 143.37874 | 32996 ft | 527 kts | 84° |
| 2026-05-04 22:54 | 35.95448 | 143.46855 | 32997 ft | 527 kts | 82° |
| 2026-05-04 22:54 | 35.96369 | 143.55831 | 32997 ft | 527 kts | 82° |
| 2026-05-04 22:55 | 35.97268 | 143.64811 | 32997 ft | 527 kts | 83° |
| 2026-05-04 22:55 | 35.98187 | 143.73808 | 32998 ft | 527 kts | 82° |
| 2026-05-04 22:56 | 35.99104 | 143.82722 | 32997 ft | 527 kts | 83° |
| 2026-05-04 22:56 | 35.99981 | 143.91722 | 32997 ft | 527 kts | 83° |
| 2026-05-04 22:57 | 36.00852 | 144.00707 | 32996 ft | 527 kts | 82° |
| 2026-05-04 22:57 | 36.02941 | 144.09319 | 32997 ft | 525 kts | 62° |
| 2026-05-04 22:58 | 36.07053 | 144.16641 | 33000 ft | 522 kts | 48° |
| 2026-05-04 22:58 | 36.11961 | 144.23210 | 32997 ft | 520 kts | 44° |
| 2026-05-04 22:59 | 36.17019 | 144.29622 | 32997 ft | 520 kts | 44° |
| 2026-05-04 22:59 | 36.22008 | 144.36102 | 32997 ft | 520 kts | 45° |
| 2026-05-04 23:00 | 36.26989 | 144.42621 | 32997 ft | 520 kts | 44° |
| 2026-05-04 23:00 | 36.31946 | 144.49077 | 32997 ft | 520 kts | 44° |
| 2026-05-04 23:01 | 36.36921 | 144.55609 | 32997 ft | 520 kts | 45° |
| 2026-05-04 23:01 | 36.41881 | 144.62149 | 32997 ft | 520 kts | 45° |
| 2026-05-04 23:02 | 36.46835 | 144.68698 | 32997 ft | 520 kts | 45° |
| 2026-05-04 23:02 | 36.51756 | 144.75218 | 32997 ft | 520 kts | 45° |
| 2026-05-04 23:03 | 36.56703 | 144.81786 | 32997 ft | 521 kts | 45° |
| 2026-05-04 23:03 | 36.61655 | 144.88372 | 32997 ft | 521 kts | 45° |
| 2026-05-04 23:04 | 36.66597 | 144.94960 | 32997 ft | 521 kts | 45° |
| 2026-05-04 23:04 | 36.71503 | 145.01512 | 32997 ft | 521 kts | 45° |
| 2026-05-04 23:05 | 36.76438 | 145.08117 | 32997 ft | 521 kts | 45° |
| 2026-05-04 23:05 | 36.81371 | 145.14732 | 32997 ft | 521 kts | 45° |
| 2026-05-04 23:06 | 36.86298 | 145.21353 | 32997 ft | 521 kts | 45° |
| 2026-05-04 23:06 | 36.91194 | 145.27947 | 32997 ft | 521 kts | 45° |
| 2026-05-04 23:07 | 36.96111 | 145.34581 | 32997 ft | 521 kts | 45° |
| 2026-05-04 23:07 | 37.01047 | 145.41211 | 32997 ft | 521 kts | 45° |
| 2026-05-04 23:08 | 37.05959 | 145.47864 | 32997 ft | 521 kts | 45° |
| 2026-05-04 23:08 | 37.10865 | 145.54545 | 32997 ft | 521 kts | 45° |
| 2026-05-04 23:09 | 37.15733 | 145.61185 | 32997 ft | 521 kts | 45° |
| 2026-05-04 23:09 | 37.20410 | 145.68123 | 32999 ft | 523 kts | 52° |
| 2026-05-04 23:10 | 37.24418 | 145.75734 | 32997 ft | 524 kts | 57° |
| 2026-05-04 23:10 | 37.28207 | 145.83543 | 32997 ft | 524 kts | 57° |
| 2026-05-04 23:11 | 37.32027 | 145.91344 | 32997 ft | 524 kts | 57° |
| 2026-05-04 23:11 | 37.35832 | 145.99078 | 32997 ft | 524 kts | 57° |
| 2026-05-04 23:12 | 37.39681 | 146.06846 | 32997 ft | 523 kts | 56° |
| 2026-05-04 23:12 | 37.43558 | 146.14601 | 32997 ft | 524 kts | 56° |
| 2026-05-04 23:13 | 37.47410 | 146.22379 | 32997 ft | 524 kts | 57° |
| 2026-05-04 23:13 | 37.51246 | 146.30164 | 32997 ft | 524 kts | 57° |
| 2026-05-04 23:14 | 37.55075 | 146.37961 | 32997 ft | 524 kts | 57° |
| 2026-05-04 23:14 | 37.58877 | 146.45721 | 32997 ft | 524 kts | 57° |
| 2026-05-04 23:15 | 37.62702 | 146.53548 | 32997 ft | 524 kts | 57° |
| 2026-05-04 23:15 | 37.66518 | 146.61376 | 32997 ft | 524 kts | 57° |
| 2026-05-04 23:16 | 37.70327 | 146.69209 | 32997 ft | 524 kts | 57° |
| 2026-05-04 23:16 | 37.74109 | 146.77004 | 32997 ft | 524 kts | 57° |
| 2026-05-04 23:17 | 37.77905 | 146.84848 | 32997 ft | 524 kts | 57° |
| 2026-05-04 23:17 | 37.81699 | 146.92706 | 32997 ft | 524 kts | 57° |
| 2026-05-04 23:18 | 37.85494 | 147.00583 | 32997 ft | 524 kts | 57° |
| 2026-05-04 23:18 | 37.89277 | 147.08456 | 32997 ft | 524 kts | 57° |
| 2026-05-04 23:19 | 37.93058 | 147.16343 | 32997 ft | 524 kts | 57° |
| 2026-05-04 23:19 | 37.96808 | 147.24187 | 32997 ft | 524 kts | 57° |
| 2026-05-04 23:20 | 38.00576 | 147.32085 | 32997 ft | 524 kts | 57° |
| 2026-05-04 23:20 | 38.04342 | 147.39998 | 32997 ft | 524 kts | 57° |
| 2026-05-04 23:21 | 38.08104 | 147.47923 | 32997 ft | 524 kts | 57° |
| 2026-05-04 23:21 | 38.11853 | 147.55839 | 32997 ft | 524 kts | 57° |
| 2026-05-04 23:22 | 38.15577 | 147.63721 | 32997 ft | 524 kts | 57° |
| 2026-05-04 23:22 | 38.19321 | 147.71666 | 32997 ft | 524 kts | 58° |
| 2026-05-04 23:23 | 38.23062 | 147.79624 | 32997 ft | 524 kts | 58° |
| 2026-05-04 23:23 | 38.26791 | 147.87576 | 32997 ft | 524 kts | 58° |
| 2026-05-04 23:24 | 38.30520 | 147.95547 | 32997 ft | 524 kts | 58° |
| 2026-05-04 23:24 | 38.34219 | 148.03475 | 32997 ft | 524 kts | 58° |
| 2026-05-04 23:25 | 38.37935 | 148.11457 | 32997 ft | 524 kts | 58° |
| 2026-05-04 23:25 | 38.41643 | 148.19445 | 32997 ft | 524 kts | 58° |
| 2026-05-04 23:26 | 38.45354 | 148.27456 | 32997 ft | 524 kts | 58° |
| 2026-05-04 23:26 | 38.49029 | 148.35410 | 32997 ft | 524 kts | 58° |
| 2026-05-04 23:27 | 38.52726 | 148.43432 | 32997 ft | 524 kts | 58° |
| 2026-05-04 23:27 | 38.56415 | 148.51456 | 32997 ft | 524 kts | 58° |
| 2026-05-04 23:28 | 38.60099 | 148.59490 | 32997 ft | 524 kts | 58° |
| 2026-05-04 23:28 | 38.63779 | 148.67535 | 32997 ft | 524 kts | 58° |
| 2026-05-04 23:29 | 38.67427 | 148.75531 | 32997 ft | 524 kts | 58° |
| 2026-05-04 23:29 | 38.71091 | 148.83581 | 32997 ft | 524 kts | 58° |
| 2026-05-04 23:30 | 38.74756 | 148.91655 | 32997 ft | 524 kts | 58° |
| 2026-05-04 23:30 | 38.78414 | 148.99734 | 32997 ft | 524 kts | 58° |
| 2026-05-04 23:31 | 38.82045 | 149.07773 | 32997 ft | 524 kts | 58° |
| 2026-05-04 23:31 | 38.85713 | 149.15915 | 32997 ft | 524 kts | 58° |
| 2026-05-04 23:32 | 38.89324 | 149.23952 | 32997 ft | 524 kts | 58° |
| 2026-05-04 23:32 | 38.92962 | 149.32069 | 32997 ft | 524 kts | 58° |
| 2026-05-04 23:33 | 38.96594 | 149.40193 | 32997 ft | 524 kts | 59° |
| 2026-05-04 23:33 | 39.00202 | 149.48264 | 32996 ft | 524 kts | 58° |
| 2026-05-04 23:34 | 39.03844 | 149.56383 | 32997 ft | 524 kts | 59° |
| 2026-05-04 23:34 | 39.07443 | 149.64528 | 32997 ft | 524 kts | 59° |
| 2026-05-04 23:35 | 39.11045 | 149.72705 | 32997 ft | 524 kts | 59° |
| 2026-05-04 23:35 | 39.14508 | 149.80952 | 32997 ft | 525 kts | 64° |
| 2026-05-04 23:36 | 39.17111 | 149.89752 | 32997 ft | 526 kts | 70° |
| 2026-05-04 23:36 | 39.19251 | 149.98779 | 32997 ft | 526 kts | 73° |
| 2026-05-04 23:37 | 39.21206 | 150.07799 | 32997 ft | 527 kts | 73° |
| 2026-05-04 23:37 | 39.23211 | 150.16888 | 32997 ft | 527 kts | 73° |
| 2026-05-04 23:38 | 39.25233 | 150.25960 | 32996 ft | 526 kts | 73° |
| 2026-05-04 23:38 | 39.27329 | 150.35029 | 32997 ft | 526 kts | 72° |
| 2026-05-04 23:39 | 39.29397 | 150.44090 | 32997 ft | 526 kts | 73° |
| 2026-05-04 23:39 | 39.31425 | 150.53092 | 32997 ft | 526 kts | 73° |
| 2026-05-04 23:40 | 39.33458 | 150.62176 | 32997 ft | 526 kts | 73° |
| 2026-05-04 23:40 | 39.35486 | 150.71282 | 32997 ft | 526 kts | 73° |
| 2026-05-04 23:41 | 39.37501 | 150.80375 | 32997 ft | 527 kts | 73° |
| 2026-05-04 23:41 | 39.39510 | 150.89473 | 32997 ft | 527 kts | 73° |
| 2026-05-04 23:42 | 39.41511 | 150.98578 | 32997 ft | 527 kts | 73° |
| 2026-05-04 23:42 | 39.43508 | 151.07698 | 32997 ft | 527 kts | 73° |
| 2026-05-04 23:43 | 39.45482 | 151.16753 | 32997 ft | 527 kts | 73° |
| 2026-05-04 23:43 | 39.47460 | 151.25866 | 32997 ft | 527 kts | 73° |
| 2026-05-04 23:44 | 39.49433 | 151.34991 | 32997 ft | 527 kts | 73° |
| 2026-05-04 23:44 | 39.51400 | 151.44129 | 32997 ft | 527 kts | 73° |
| 2026-05-04 23:45 | 39.53358 | 151.53260 | 32997 ft | 527 kts | 73° |
| 2026-05-04 23:45 | 39.55298 | 151.62347 | 32997 ft | 527 kts | 73° |
| 2026-05-04 23:46 | 39.57246 | 151.71508 | 32997 ft | 527 kts | 74° |
| 2026-05-04 23:46 | 39.59182 | 151.80653 | 32997 ft | 527 kts | 74° |
| 2026-05-04 23:47 | 39.61113 | 151.89816 | 32997 ft | 527 kts | 74° |
| 2026-05-04 23:47 | 39.63025 | 151.98924 | 32997 ft | 527 kts | 74° |
| 2026-05-04 23:48 | 39.64942 | 152.08098 | 32997 ft | 527 kts | 74° |
| 2026-05-04 23:48 | 39.66850 | 152.17269 | 32997 ft | 527 kts | 74° |
| 2026-05-04 23:49 | 39.68751 | 152.26441 | 32997 ft | 527 kts | 74° |
| 2026-05-04 23:49 | 39.70635 | 152.35578 | 32997 ft | 527 kts | 74° |
| 2026-05-04 23:50 | 39.72533 | 152.44818 | 32997 ft | 527 kts | 74° |
| 2026-05-04 23:50 | 39.74403 | 152.53961 | 32997 ft | 527 kts | 74° |
| 2026-05-04 23:51 | 39.76274 | 152.63150 | 32997 ft | 527 kts | 74° |
| 2026-05-04 23:51 | 39.78142 | 152.72369 | 32997 ft | 527 kts | 75° |
| 2026-05-04 23:52 | 39.79987 | 152.81512 | 32997 ft | 527 kts | 75° |
| 2026-05-04 23:52 | 39.81837 | 152.90717 | 32997 ft | 527 kts | 75° |
| 2026-05-04 23:53 | 39.83681 | 152.99941 | 32997 ft | 527 kts | 75° |
| 2026-05-04 23:53 | 39.85520 | 153.09175 | 32997 ft | 527 kts | 75° |
| 2026-05-04 23:54 | 39.87349 | 153.18404 | 32997 ft | 527 kts | 75° |
| 2026-05-04 23:54 | 39.89171 | 153.27638 | 32997 ft | 527 kts | 75° |
| 2026-05-04 23:55 | 39.90975 | 153.36824 | 32997 ft | 527 kts | 75° |
| 2026-05-04 23:56 | 39.93682 | 153.50685 | 32997 ft | 527 kts | 75° |
| 2026-05-04 23:56 | 39.95478 | 153.59938 | 32997 ft | 527 kts | 75° |
| 2026-05-04 23:57 | 39.97258 | 153.69144 | 32997 ft | 527 kts | 75° |
| 2026-05-04 23:57 | 39.99040 | 153.78411 | 32997 ft | 527 kts | 75° |
| 2026-05-04 23:58 | 40.00806 | 153.87629 | 32997 ft | 527 kts | 75° |
| 2026-05-04 23:58 | 40.02574 | 153.96906 | 32997 ft | 527 kts | 75° |
| 2026-05-04 23:59 | 40.04322 | 154.06125 | 32997 ft | 527 kts | 75° |
| 2026-05-04 23:59 | 40.06073 | 154.15398 | 32997 ft | 527 kts | 75° |
| 2026-05-05 00:00 | 40.07817 | 154.24677 | 32997 ft | 527 kts | 75° |
| 2026-05-05 00:00 | 40.09558 | 154.33986 | 32997 ft | 527 kts | 76° |
| 2026-05-05 00:01 | 40.11289 | 154.43289 | 32997 ft | 527 kts | 76° |
| 2026-05-05 00:01 | 40.13000 | 154.52525 | 32997 ft | 527 kts | 76° |
| 2026-05-05 00:02 | 40.14716 | 154.61832 | 32997 ft | 527 kts | 76° |
| 2026-05-05 00:02 | 40.16423 | 154.71138 | 32997 ft | 527 kts | 76° |
| 2026-05-05 00:03 | 40.18125 | 154.80465 | 32997 ft | 527 kts | 76° |
| 2026-05-05 00:03 | 40.19818 | 154.89783 | 32997 ft | 527 kts | 76° |
| 2026-05-05 00:04 | 40.21492 | 154.99043 | 32997 ft | 527 kts | 76° |
| 2026-05-05 00:04 | 40.23172 | 155.08383 | 32997 ft | 527 kts | 76° |
| 2026-05-05 00:05 | 40.24842 | 155.17714 | 32997 ft | 527 kts | 76° |
| 2026-05-05 00:05 | 40.26504 | 155.27043 | 32997 ft | 527 kts | 76° |
| 2026-05-05 00:06 | 40.28161 | 155.36395 | 32997 ft | 527 kts | 76° |
| 2026-05-05 00:06 | 40.29811 | 155.45752 | 32997 ft | 527 kts | 76° |
| 2026-05-05 00:07 | 40.31452 | 155.55109 | 32997 ft | 527 kts | 76° |
| 2026-05-05 00:07 | 40.33085 | 155.64462 | 32997 ft | 527 kts | 76° |
| 2026-05-05 00:08 | 40.34700 | 155.73764 | 32997 ft | 527 kts | 76° |
| 2026-05-05 00:08 | 40.36316 | 155.83120 | 32997 ft | 527 kts | 77° |
| 2026-05-05 00:09 | 40.37930 | 155.92509 | 32997 ft | 527 kts | 77° |
| 2026-05-05 00:09 | 40.39532 | 156.01880 | 32997 ft | 527 kts | 77° |
| 2026-05-05 00:10 | 40.41129 | 156.11269 | 32997 ft | 527 kts | 77° |
| 2026-05-05 00:10 | 40.42716 | 156.20649 | 32997 ft | 527 kts | 77° |
| 2026-05-05 00:11 | 40.44287 | 156.29983 | 32997 ft | 527 kts | 77° |
| 2026-05-05 00:11 | 40.45861 | 156.39380 | 32997 ft | 527 kts | 77° |
| 2026-05-05 00:12 | 40.47426 | 156.48781 | 32997 ft | 527 kts | 77° |
| 2026-05-05 00:12 | 40.48982 | 156.58172 | 32997 ft | 527 kts | 77° |
| 2026-05-05 00:13 | 40.50523 | 156.67524 | 32997 ft | 527 kts | 77° |
| 2026-05-05 00:13 | 40.52065 | 156.76934 | 32997 ft | 527 kts | 77° |
| 2026-05-05 00:14 | 40.53600 | 156.86350 | 32997 ft | 527 kts | 77° |
| 2026-05-05 00:14 | 40.55128 | 156.95778 | 32997 ft | 527 kts | 77° |
| 2026-05-05 00:15 | 40.56648 | 157.05204 | 32997 ft | 527 kts | 77° |
| 2026-05-05 00:15 | 40.58150 | 157.14570 | 32997 ft | 527 kts | 77° |
| 2026-05-05 00:16 | 40.59654 | 157.24003 | 32997 ft | 527 kts | 77° |
| 2026-05-05 00:16 | 40.61152 | 157.33446 | 32997 ft | 527 kts | 77° |
| 2026-05-05 00:17 | 40.62641 | 157.42891 | 32997 ft | 527 kts | 78° |
| 2026-05-05 00:17 | 40.63872 | 157.50736 | 32997 ft | 527 kts | 78° |
| 2026-05-05 00:18 | 40.65349 | 157.60200 | 32997 ft | 527 kts | 78° |
| 2026-05-05 00:18 | 40.66816 | 157.69655 | 32997 ft | 527 kts | 78° |
| 2026-05-05 00:19 | 40.68277 | 157.79120 | 32997 ft | 527 kts | 78° |
| 2026-05-05 00:19 | 40.69728 | 157.88582 | 32997 ft | 527 kts | 78° |
| 2026-05-05 00:20 | 40.71172 | 157.98046 | 32997 ft | 527 kts | 78° |
| 2026-05-05 00:20 | 40.72608 | 158.07516 | 32997 ft | 527 kts | 78° |
| 2026-05-05 00:21 | 40.74038 | 158.17001 | 32997 ft | 527 kts | 78° |
| 2026-05-05 00:21 | 40.75457 | 158.26468 | 32997 ft | 527 kts | 78° |
| 2026-05-05 00:22 | 40.76872 | 158.35964 | 32997 ft | 527 kts | 78° |
| 2026-05-05 00:22 | 40.78278 | 158.45451 | 32997 ft | 527 kts | 78° |
| 2026-05-05 00:23 | 40.79667 | 158.54887 | 32997 ft | 527 kts | 78° |
| 2026-05-05 00:23 | 40.81056 | 158.64378 | 32997 ft | 527 kts | 78° |
| 2026-05-05 00:24 | 40.82438 | 158.73878 | 32997 ft | 527 kts | 78° |
| 2026-05-05 00:24 | 40.83813 | 158.83386 | 32997 ft | 527 kts | 78° |
| 2026-05-05 00:25 | 40.85181 | 158.92902 | 32997 ft | 527 kts | 79° |
| 2026-05-05 00:25 | 40.86531 | 159.02354 | 32997 ft | 527 kts | 79° |
| 2026-05-05 00:26 | 40.87883 | 159.11871 | 32997 ft | 527 kts | 79° |
| 2026-05-05 00:26 | 40.89225 | 159.21383 | 32997 ft | 527 kts | 79° |
| 2026-05-05 00:27 | 40.90562 | 159.30921 | 32997 ft | 527 kts | 79° |
| 2026-05-05 00:27 | 40.91889 | 159.40445 | 32997 ft | 527 kts | 79° |
| 2026-05-05 00:28 | 40.93200 | 159.49912 | 32997 ft | 527 kts | 79° |
| 2026-05-05 00:28 | 40.94518 | 159.59450 | 32998 ft | 527 kts | 79° |
| 2026-05-05 00:29 | 40.95859 | 159.68980 | 32997 ft | 527 kts | 79° |
| 2026-05-05 00:29 | 40.97141 | 159.78524 | 32997 ft | 527 kts | 79° |
| 2026-05-05 00:30 | 40.98414 | 159.88078 | 32997 ft | 527 kts | 79° |
| 2026-05-05 00:30 | 40.99676 | 159.97570 | 32997 ft | 527 kts | 79° |
| 2026-05-05 00:31 | 41.00510 | 160.07219 | 32997 ft | 527 kts | 85° |
| 2026-05-05 00:31 | 41.00861 | 160.16919 | 32997 ft | 528 kts | 88° |
| 2026-05-05 00:32 | 41.01130 | 160.26624 | 32997 ft | 527 kts | 87° |
| 2026-05-05 00:32 | 41.01457 | 160.36321 | 32997 ft | 527 kts | 87° |
| 2026-05-05 00:33 | 41.01804 | 160.46023 | 32997 ft | 527 kts | 87° |
| 2026-05-05 00:33 | 41.02228 | 160.55719 | 32997 ft | 527 kts | 86° |
| 2026-05-05 00:34 | 41.02627 | 160.65417 | 32997 ft | 527 kts | 87° |
| 2026-05-05 00:34 | 41.02998 | 160.75122 | 32997 ft | 527 kts | 87° |
| 2026-05-05 00:35 | 41.03352 | 160.84752 | 32997 ft | 527 kts | 87° |
| 2026-05-05 00:35 | 41.03698 | 160.94456 | 32997 ft | 527 kts | 87° |
| 2026-05-05 00:36 | 41.04038 | 161.04237 | 32997 ft | 527 kts | 87° |
| 2026-05-05 00:36 | 41.04364 | 161.13876 | 32997 ft | 527 kts | 87° |
| 2026-05-05 00:37 | 41.04684 | 161.23582 | 32997 ft | 527 kts | 87° |
| 2026-05-05 00:37 | 41.04997 | 161.33295 | 32997 ft | 527 kts | 87° |
| 2026-05-05 00:38 | 41.05301 | 161.43002 | 32997 ft | 527 kts | 88° |
| 2026-05-05 00:38 | 41.05596 | 161.52708 | 32997 ft | 527 kts | 88° |
| 2026-05-05 00:39 | 41.05884 | 161.62417 | 32997 ft | 528 kts | 88° |
| 2026-05-05 00:39 | 41.06164 | 161.72137 | 32997 ft | 527 kts | 88° |
| 2026-05-05 00:40 | 41.06436 | 161.81853 | 32997 ft | 527 kts | 88° |
| 2026-05-05 00:40 | 41.06699 | 161.91567 | 32997 ft | 528 kts | 88° |
| 2026-05-05 00:41 | 41.06954 | 162.01279 | 32997 ft | 528 kts | 88° |
| 2026-05-05 00:41 | 41.07199 | 162.10922 | 32997 ft | 527 kts | 88° |
| 2026-05-05 00:42 | 41.07438 | 162.20632 | 32997 ft | 528 kts | 88° |
| 2026-05-05 00:42 | 41.07669 | 162.30362 | 32997 ft | 528 kts | 88° |
| 2026-05-05 00:43 | 41.07892 | 162.40081 | 32997 ft | 528 kts | 88° |
| 2026-05-05 00:43 | 41.08105 | 162.49724 | 32997 ft | 527 kts | 88° |
| 2026-05-05 00:44 | 41.08311 | 162.59448 | 32997 ft | 528 kts | 88° |
| 2026-05-05 00:44 | 41.08509 | 162.69173 | 32997 ft | 528 kts | 88° |
| 2026-05-05 00:45 | 41.08699 | 162.78885 | 32997 ft | 528 kts | 88° |
| 2026-05-05 00:45 | 41.08881 | 162.88608 | 32997 ft | 528 kts | 88° |
| 2026-05-05 00:46 | 41.09053 | 162.98257 | 32997 ft | 528 kts | 89° |
| 2026-05-05 00:46 | 41.09219 | 163.07979 | 32997 ft | 528 kts | 89° |
| 2026-05-05 00:47 | 41.09376 | 163.17701 | 32997 ft | 528 kts | 89° |
| 2026-05-05 00:47 | 41.09525 | 163.27424 | 32997 ft | 528 kts | 89° |
| 2026-05-05 00:48 | 41.09666 | 163.37157 | 32997 ft | 528 kts | 89° |
| 2026-05-05 00:48 | 41.09798 | 163.46818 | 32997 ft | 528 kts | 89° |
| 2026-05-05 00:49 | 41.09923 | 163.56532 | 32997 ft | 528 kts | 89° |
| 2026-05-05 00:49 | 41.10040 | 163.66254 | 32997 ft | 528 kts | 89° |
| 2026-05-05 00:50 | 41.10148 | 163.75970 | 32997 ft | 528 kts | 89° |
| 2026-05-05 00:50 | 41.10248 | 163.85704 | 32997 ft | 528 kts | 89° |
| 2026-05-05 00:51 | 41.10340 | 163.95372 | 32997 ft | 528 kts | 89° |
| 2026-05-05 00:51 | 41.10423 | 164.05085 | 32997 ft | 528 kts | 89° |
| 2026-05-05 00:52 | 41.10499 | 164.14819 | 32997 ft | 528 kts | 89° |
| 2026-05-05 00:52 | 41.10567 | 164.24535 | 32997 ft | 528 kts | 89° |
| 2026-05-05 00:53 | 41.10626 | 164.34268 | 32997 ft | 528 kts | 89° |
| 2026-05-05 00:53 | 41.10677 | 164.43989 | 32997 ft | 528 kts | 89° |
| 2026-05-05 00:54 | 41.10720 | 164.53719 | 32997 ft | 528 kts | 90° |
| 2026-05-05 00:54 | 41.10755 | 164.63375 | 32997 ft | 528 kts | 90° |
| 2026-05-05 00:55 | 41.10782 | 164.73111 | 32997 ft | 528 kts | 90° |
| 2026-05-05 00:55 | 41.10800 | 164.82830 | 32997 ft | 528 kts | 90° |
| 2026-05-05 00:56 | 41.10810 | 164.92564 | 32997 ft | 528 kts | 90° |
| 2026-05-05 00:56 | 41.10813 | 165.02225 | 32997 ft | 528 kts | 90° |
| 2026-05-05 00:57 | 41.10807 | 165.11949 | 32997 ft | 528 kts | 90° |
| 2026-05-05 00:57 | 41.10793 | 165.21679 | 32997 ft | 528 kts | 90° |
| 2026-05-05 00:58 | 41.10770 | 165.31400 | 32997 ft | 528 kts | 90° |
| 2026-05-05 00:58 | 41.10740 | 165.41062 | 32997 ft | 528 kts | 90° |
| 2026-05-05 00:59 | 41.10701 | 165.50796 | 32997 ft | 528 kts | 90° |
| 2026-05-05 00:59 | 41.10655 | 165.60515 | 32997 ft | 528 kts | 90° |
| 2026-05-05 01:00 | 41.10600 | 165.70236 | 32997 ft | 528 kts | 90° |
| 2026-05-05 01:00 | 41.10536 | 165.79960 | 32997 ft | 528 kts | 90° |
| 2026-05-05 01:01 | 41.10466 | 165.89623 | 32997 ft | 528 kts | 90° |
| 2026-05-05 01:01 | 41.10386 | 165.99347 | 32997 ft | 528 kts | 90° |
| 2026-05-05 01:02 | 41.10298 | 166.09078 | 32997 ft | 528 kts | 91° |
| 2026-05-05 01:02 | 41.10203 | 166.18794 | 32997 ft | 528 kts | 91° |
| 2026-05-05 01:03 | 41.10099 | 166.28519 | 32997 ft | 528 kts | 91° |
| 2026-05-05 01:03 | 41.09986 | 166.38253 | 32997 ft | 528 kts | 91° |
| 2026-05-05 01:04 | 41.09867 | 166.47915 | 32997 ft | 528 kts | 91° |
| 2026-05-05 01:04 | 41.09671 | 166.62495 | 32997 ft | 528 kts | 91° |
| 2026-05-05 01:05 | 41.09530 | 166.72218 | 32997 ft | 528 kts | 91° |
| 2026-05-05 01:05 | 41.09382 | 166.81933 | 32997 ft | 528 kts | 91° |
| 2026-05-05 01:06 | 41.09224 | 166.91667 | 32997 ft | 528 kts | 91° |
| 2026-05-05 01:06 | 41.09060 | 167.01319 | 32997 ft | 528 kts | 91° |
| 2026-05-05 01:07 | 41.08887 | 167.11035 | 32997 ft | 528 kts | 91° |
| 2026-05-05 01:07 | 41.08704 | 167.20827 | 32997 ft | 528 kts | 91° |
| 2026-05-05 01:08 | 41.08516 | 167.30485 | 32997 ft | 528 kts | 91° |
| 2026-05-05 01:08 | 41.08318 | 167.40205 | 32997 ft | 528 kts | 91° |
| 2026-05-05 01:09 | 41.08112 | 167.49920 | 32997 ft | 528 kts | 91° |
| 2026-05-05 01:09 | 41.07898 | 167.59636 | 32997 ft | 528 kts | 92° |
| 2026-05-05 01:10 | 41.07676 | 167.69355 | 32997 ft | 528 kts | 92° |
| 2026-05-05 01:10 | 41.07447 | 167.79003 | 32997 ft | 527 kts | 92° |
| 2026-05-05 01:11 | 41.07208 | 167.88721 | 32997 ft | 528 kts | 92° |
| 2026-05-05 01:11 | 41.06961 | 167.98437 | 32997 ft | 528 kts | 92° |
| 2026-05-05 01:12 | 41.06706 | 168.08149 | 32997 ft | 527 kts | 92° |
| 2026-05-05 01:12 | 41.06443 | 168.17869 | 32997 ft | 527 kts | 92° |
| 2026-05-05 01:13 | 41.06172 | 168.27576 | 32997 ft | 528 kts | 92° |
| 2026-05-05 01:13 | 41.05895 | 168.37227 | 32997 ft | 527 kts | 92° |
| 2026-05-05 01:14 | 41.05607 | 168.46934 | 32997 ft | 527 kts | 92° |
| 2026-05-05 01:14 | 41.05312 | 168.56636 | 32997 ft | 527 kts | 92° |
| 2026-05-05 01:15 | 41.05008 | 168.66347 | 32997 ft | 528 kts | 92° |
| 2026-05-05 01:15 | 41.04696 | 168.76069 | 32997 ft | 527 kts | 92° |
| 2026-05-05 01:16 | 41.04376 | 168.85768 | 32997 ft | 527 kts | 92° |
| 2026-05-05 01:16 | 41.04048 | 168.95471 | 32997 ft | 527 kts | 92° |
| 2026-05-05 01:17 | 41.03712 | 169.05167 | 32997 ft | 527 kts | 92° |
| 2026-05-05 01:17 | 41.03367 | 169.14887 | 32997 ft | 527 kts | 93° |
| 2026-05-05 01:18 | 41.03015 | 169.24590 | 32997 ft | 527 kts | 93° |
| 2026-05-05 01:18 | 41.02654 | 169.34295 | 32997 ft | 527 kts | 93° |
| 2026-05-05 01:19 | 41.02288 | 169.43932 | 32997 ft | 527 kts | 93° |
| 2026-05-05 01:19 | 41.01911 | 169.53636 | 32997 ft | 527 kts | 93° |
| 2026-05-05 01:20 | 41.01560 | 169.63334 | 32999 ft | 527 kts | 93° |
| 2026-05-05 01:20 | 41.01173 | 169.73025 | 32997 ft | 527 kts | 93° |
| 2026-05-05 01:21 | 41.00756 | 169.82666 | 32997 ft | 527 kts | 93° |
| 2026-05-05 01:21 | 41.00333 | 169.92358 | 32997 ft | 527 kts | 93° |
| 2026-05-05 01:22 | 41.00023 | 170.02054 | 32996 ft | 528 kts | 90° |
| 2026-05-05 01:22 | 41.00291 | 170.11757 | 32997 ft | 527 kts | 86° |
| 2026-05-05 01:23 | 41.00783 | 170.21386 | 32997 ft | 527 kts | 86° |
| 2026-05-05 01:23 | 41.01215 | 170.31082 | 32997 ft | 527 kts | 86° |
| 2026-05-05 01:24 | 41.01595 | 170.40780 | 32997 ft | 527 kts | 87° |
| 2026-05-05 01:24 | 41.01988 | 170.50473 | 32997 ft | 527 kts | 86° |
| 2026-05-05 01:25 | 41.02412 | 170.60107 | 32997 ft | 527 kts | 86° |
| 2026-05-05 01:25 | 41.02797 | 170.69806 | 32997 ft | 527 kts | 87° |
| 2026-05-05 01:26 | 41.03160 | 170.79495 | 32997 ft | 527 kts | 87° |
| 2026-05-05 01:26 | 41.03512 | 170.89208 | 32997 ft | 527 kts | 87° |
| 2026-05-05 01:27 | 41.03854 | 170.98910 | 32997 ft | 527 kts | 87° |
| 2026-05-05 01:27 | 41.04187 | 171.08626 | 32997 ft | 527 kts | 87° |
| 2026-05-05 01:28 | 41.04512 | 171.18321 | 32997 ft | 527 kts | 87° |
| 2026-05-05 01:28 | 41.04827 | 171.27975 | 32997 ft | 527 kts | 87° |
| 2026-05-05 01:29 | 41.05135 | 171.37678 | 32997 ft | 528 kts | 87° |
| 2026-05-05 01:29 | 41.05436 | 171.47395 | 32997 ft | 527 kts | 88° |
| 2026-05-05 01:30 | 41.05727 | 171.57091 | 32997 ft | 527 kts | 88° |
| 2026-05-05 01:30 | 41.06012 | 171.66809 | 32997 ft | 527 kts | 88° |
| 2026-05-05 01:31 | 41.06286 | 171.76463 | 32997 ft | 528 kts | 88° |
| 2026-05-05 01:31 | 41.06554 | 171.86180 | 32997 ft | 527 kts | 88° |
| 2026-05-05 01:32 | 41.06814 | 171.95890 | 32997 ft | 527 kts | 88° |
| 2026-05-05 01:32 | 41.07065 | 172.05610 | 32997 ft | 528 kts | 88° |
| 2026-05-05 01:33 | 41.07307 | 172.15253 | 32997 ft | 528 kts | 88° |
| 2026-05-05 01:33 | 41.07542 | 172.24964 | 32997 ft | 527 kts | 88° |
| 2026-05-05 01:34 | 41.07769 | 172.34687 | 32997 ft | 528 kts | 88° |
| 2026-05-05 01:34 | 41.07988 | 172.44407 | 32997 ft | 528 kts | 88° |
| 2026-05-05 01:35 | 41.08199 | 172.54122 | 32997 ft | 528 kts | 88° |
| 2026-05-05 01:35 | 41.08401 | 172.63824 | 33009 ft | 528 kts | 88° |
| 2026-05-05 01:36 | 41.08500 | 172.68703 | 33281 ft | 522 kts | 88° |
| 2026-05-05 01:36 | 41.08592 | 172.73373 | 34645 ft | 494 kts | 88° |
| 2026-05-05 01:36 | 41.08678 | 172.77795 | 35756 ft | 476 kts | 88° |
| 2026-05-05 01:36 | 41.08762 | 172.82180 | 36387 ft | 469 kts | 88° |
| 2026-05-05 01:37 | 41.08843 | 172.86511 | 36062 ft | 482 kts | 88° |
| 2026-05-05 01:37 | 41.08924 | 172.90962 | 36098 ft | 487 kts | 88° |
| 2026-05-05 01:37 | 41.09005 | 172.95518 | 35787 ft | 499 kts | 88° |
| 2026-05-05 01:37 | 41.09086 | 173.00123 | 35673 ft | 501 kts | 88° |
| 2026-05-05 01:38 | 41.09241 | 173.09298 | 35277 ft | 496 kts | 89° |
| 2026-05-05 01:38 | 41.09315 | 173.13867 | 35114 ft | 498 kts | 89° |
| 2026-05-05 01:38 | 41.09388 | 173.18419 | 35056 ft | 500 kts | 89° |
| 2026-05-05 01:39 | 41.09529 | 173.27649 | 34997 ft | 500 kts | 89° |
| 2026-05-05 01:39 | 41.09663 | 173.36866 | 34997 ft | 501 kts | 89° |
| 2026-05-05 01:40 | 41.09789 | 173.46107 | 34997 ft | 501 kts | 89° |
| 2026-05-05 01:40 | 41.09908 | 173.55334 | 34997 ft | 501 kts | 89° |
| 2026-05-05 01:41 | 41.10020 | 173.64554 | 34997 ft | 501 kts | 89° |
| 2026-05-05 01:41 | 41.10107 | 173.72234 | 34997 ft | 501 kts | 89° |
| 2026-05-05 01:42 | 41.10221 | 173.82969 | 34997 ft | 501 kts | 89° |
| 2026-05-05 01:42 | 41.10311 | 173.92186 | 34997 ft | 501 kts | 89° |
| 2026-05-05 01:43 | 41.10380 | 173.99863 | 34997 ft | 501 kts | 89° |
| 2026-05-05 01:43 | 41.10456 | 174.09103 | 34997 ft | 501 kts | 89° |
| 2026-05-05 01:44 | 41.10525 | 174.18325 | 34997 ft | 501 kts | 89° |
| 2026-05-05 01:44 | 41.10586 | 174.27552 | 34997 ft | 501 kts | 89° |
| 2026-05-05 01:45 | 41.10640 | 174.36794 | 34997 ft | 501 kts | 89° |
| 2026-05-05 01:45 | 41.10687 | 174.45952 | 34997 ft | 501 kts | 89° |
| 2026-05-05 01:46 | 41.10726 | 174.55176 | 34997 ft | 501 kts | 90° |
| 2026-05-05 01:46 | 41.10758 | 174.64415 | 34997 ft | 501 kts | 90° |
| 2026-05-05 01:47 | 41.10783 | 174.73654 | 34997 ft | 501 kts | 90° |
| 2026-05-05 01:47 | 41.10800 | 174.82893 | 34997 ft | 501 kts | 90° |
| 2026-05-05 01:48 | 41.10810 | 174.92062 | 34997 ft | 501 kts | 90° |
| 2026-05-05 01:48 | 41.10813 | 175.01296 | 34997 ft | 501 kts | 90° |
| 2026-05-05 01:49 | 41.10808 | 175.10516 | 34997 ft | 501 kts | 90° |
| 2026-05-05 01:49 | 41.10796 | 175.19745 | 34997 ft | 501 kts | 90° |
| 2026-05-05 01:50 | 41.10777 | 175.28988 | 34997 ft | 501 kts | 90° |
| 2026-05-05 01:50 | 41.10750 | 175.38156 | 34997 ft | 501 kts | 90° |
| 2026-05-05 01:51 | 41.10716 | 175.47382 | 34997 ft | 501 kts | 90° |
| 2026-05-05 01:51 | 41.10674 | 175.56618 | 34997 ft | 501 kts | 90° |
| 2026-05-05 01:52 | 41.10626 | 175.65852 | 34997 ft | 501 kts | 90° |
| 2026-05-05 01:52 | 41.10569 | 175.75074 | 34997 ft | 501 kts | 90° |
| 2026-05-05 01:53 | 41.10506 | 175.84312 | 34997 ft | 501 kts | 90° |
| 2026-05-05 01:53 | 41.10435 | 175.93533 | 34997 ft | 501 kts | 90° |
| 2026-05-05 01:54 | 41.10356 | 176.02767 | 34997 ft | 501 kts | 91° |
| 2026-05-05 01:54 | 41.10271 | 176.12001 | 34997 ft | 501 kts | 91° |
| 2026-05-05 01:55 | 41.10178 | 176.21220 | 34997 ft | 501 kts | 91° |
| 2026-05-05 01:55 | 41.10078 | 176.30397 | 34997 ft | 501 kts | 91° |
| 2026-05-05 01:56 | 41.09970 | 176.39618 | 34997 ft | 501 kts | 91° |
| 2026-05-05 01:56 | 41.09855 | 176.48851 | 34997 ft | 501 kts | 91° |
| 2026-05-05 01:57 | 41.09733 | 176.58079 | 34997 ft | 501 kts | 91° |
| 2026-05-05 01:57 | 41.09603 | 176.67313 | 34997 ft | 501 kts | 91° |
| 2026-05-05 01:58 | 41.09467 | 176.76474 | 34997 ft | 501 kts | 91° |
| 2026-05-05 01:58 | 41.09322 | 176.85703 | 34997 ft | 501 kts | 91° |
| 2026-05-05 01:59 | 41.09170 | 176.94924 | 34997 ft | 501 kts | 91° |
| 2026-05-05 01:59 | 41.09011 | 177.04154 | 34997 ft | 501 kts | 91° |
| 2026-05-05 02:00 | 41.08845 | 177.13370 | 34997 ft | 501 kts | 91° |
| 2026-05-05 02:00 | 41.08672 | 177.22546 | 34997 ft | 501 kts | 91° |
| 2026-05-05 02:01 | 41.08490 | 177.31773 | 34997 ft | 501 kts | 91° |
| 2026-05-05 02:01 | 41.08302 | 177.40994 | 34997 ft | 501 kts | 91° |
| 2026-05-05 02:02 | 41.08106 | 177.50203 | 34997 ft | 501 kts | 91° |
| 2026-05-05 02:02 | 41.07903 | 177.59432 | 34997 ft | 501 kts | 92° |
| 2026-05-05 02:03 | 41.07693 | 177.68602 | 34997 ft | 501 kts | 92° |
| 2026-05-05 02:03 | 41.07476 | 177.77816 | 34997 ft | 501 kts | 92° |
| 2026-05-05 02:04 | 41.07250 | 177.87035 | 34997 ft | 501 kts | 92° |
| 2026-05-05 02:04 | 41.07017 | 177.96264 | 34997 ft | 501 kts | 92° |
| 2026-05-05 02:05 | 41.06778 | 178.05469 | 34997 ft | 501 kts | 92° |
| 2026-05-05 02:05 | 41.06530 | 178.14703 | 34997 ft | 501 kts | 92° |
| 2026-05-05 02:06 | 41.06276 | 178.23907 | 34997 ft | 501 kts | 92° |
| 2026-05-05 02:06 | 41.06015 | 178.33069 | 34997 ft | 501 kts | 92° |
| 2026-05-05 02:07 | 41.05746 | 178.42289 | 34997 ft | 501 kts | 92° |
| 2026-05-05 02:07 | 41.05470 | 178.51496 | 34997 ft | 501 kts | 92° |
| 2026-05-05 02:08 | 41.05186 | 178.60717 | 34997 ft | 501 kts | 92° |
| 2026-05-05 02:08 | 41.04894 | 178.69933 | 34997 ft | 501 kts | 92° |
| 2026-05-05 02:09 | 41.04596 | 178.79147 | 34997 ft | 501 kts | 92° |
| 2026-05-05 02:09 | 41.04292 | 178.88298 | 34997 ft | 501 kts | 92° |
| 2026-05-05 02:10 | 41.03979 | 178.97502 | 34997 ft | 501 kts | 92° |
| 2026-05-05 02:10 | 41.03658 | 179.06712 | 34997 ft | 501 kts | 92° |
| 2026-05-05 02:11 | 41.03330 | 179.15922 | 34997 ft | 501 kts | 93° |
| 2026-05-05 02:11 | 41.02996 | 179.25123 | 34997 ft | 501 kts | 93° |
| 2026-05-05 02:12 | 41.02482 | 179.38871 | 34997 ft | 501 kts | 93° |
| 2026-05-05 02:13 | 41.02128 | 179.48090 | 34997 ft | 501 kts | 93° |
| 2026-05-05 02:13 | 41.01768 | 179.57286 | 34997 ft | 501 kts | 93° |
| 2026-05-05 02:14 | 41.01441 | 179.66498 | 34997 ft | 501 kts | 93° |
| 2026-05-05 02:14 | 41.01060 | 179.75642 | 34997 ft | 501 kts | 93° |
| 2026-05-05 02:15 | 41.00662 | 179.84832 | 34997 ft | 501 kts | 93° |
| 2026-05-05 02:15 | 41.00260 | 179.94033 | 34997 ft | 501 kts | 93° |
| 2026-05-05 02:16 | 40.99655 | -179.96798 | 34998 ft | 500 kts | 99° |
| 2026-05-05 02:16 | 40.98366 | -179.87749 | 34997 ft | 500 kts | 103° |
| 2026-05-05 02:17 | 40.96829 | -179.78775 | 34997 ft | 500 kts | 103° |
| 2026-05-05 02:17 | 40.95344 | -179.69790 | 34997 ft | 500 kts | 103° |
| 2026-05-05 02:18 | 40.93897 | -179.60789 | 34997 ft | 500 kts | 102° |
| 2026-05-05 02:18 | 40.92481 | -179.51796 | 34997 ft | 500 kts | 102° |
| 2026-05-05 02:19 | 40.91117 | -179.42784 | 34997 ft | 500 kts | 102° |
| 2026-05-05 02:19 | 40.89718 | -179.33781 | 34997 ft | 500 kts | 102° |
| 2026-05-05 02:20 | 40.88308 | -179.24833 | 34997 ft | 500 kts | 102° |
| 2026-05-05 02:20 | 40.86878 | -179.15844 | 34997 ft | 500 kts | 102° |
| 2026-05-05 02:21 | 40.85440 | -179.06855 | 34997 ft | 500 kts | 102° |
| 2026-05-05 02:21 | 40.83994 | -178.97877 | 34997 ft | 500 kts | 102° |
| 2026-05-05 02:22 | 40.82540 | -178.88893 | 34997 ft | 500 kts | 103° |
| 2026-05-05 02:22 | 40.81090 | -178.79981 | 34997 ft | 500 kts | 103° |
| 2026-05-05 02:23 | 40.79623 | -178.71011 | 34997 ft | 500 kts | 103° |
| 2026-05-05 02:23 | 40.78151 | -178.62052 | 34997 ft | 500 kts | 103° |
| 2026-05-05 02:24 | 40.76668 | -178.53083 | 34997 ft | 500 kts | 103° |
| 2026-05-05 02:24 | 40.75182 | -178.44133 | 34997 ft | 500 kts | 103° |
| 2026-05-05 02:25 | 40.73696 | -178.35232 | 34997 ft | 500 kts | 103° |
| 2026-05-05 02:25 | 40.72196 | -178.26290 | 34997 ft | 500 kts | 103° |
| 2026-05-05 02:26 | 40.70688 | -178.17346 | 34997 ft | 500 kts | 103° |
| 2026-05-05 02:26 | 40.69174 | -178.08413 | 34997 ft | 500 kts | 103° |
| 2026-05-05 02:27 | 40.67650 | -177.99468 | 34997 ft | 500 kts | 103° |
| 2026-05-05 02:27 | 40.66120 | -177.90529 | 34997 ft | 500 kts | 103° |
| 2026-05-05 02:28 | 40.64585 | -177.81608 | 34997 ft | 500 kts | 103° |
| 2026-05-05 02:28 | 40.63053 | -177.72741 | 34997 ft | 500 kts | 103° |
| 2026-05-05 02:29 | 40.61505 | -177.63830 | 34997 ft | 500 kts | 103° |
| 2026-05-05 02:29 | 40.59949 | -177.54920 | 34997 ft | 500 kts | 103° |
| 2026-05-05 02:30 | 40.58384 | -177.45998 | 34997 ft | 500 kts | 103° |
| 2026-05-05 02:30 | 40.56817 | -177.37105 | 34997 ft | 500 kts | 104° |
| 2026-05-05 02:31 | 40.55249 | -177.28256 | 34997 ft | 500 kts | 104° |
| 2026-05-05 02:31 | 40.53666 | -177.19358 | 34997 ft | 500 kts | 104° |
| 2026-05-05 02:32 | 40.52076 | -177.10469 | 34997 ft | 500 kts | 104° |
| 2026-05-05 02:32 | 40.50480 | -177.01582 | 34997 ft | 500 kts | 104° |
| 2026-05-05 02:33 | 40.48875 | -176.92695 | 34997 ft | 500 kts | 104° |
| 2026-05-05 02:33 | 40.47265 | -176.83816 | 34997 ft | 500 kts | 104° |
| 2026-05-05 02:34 | 40.45659 | -176.75002 | 34997 ft | 500 kts | 104° |
| 2026-05-05 02:34 | 40.44036 | -176.66139 | 34997 ft | 500 kts | 104° |
| 2026-05-05 02:35 | 40.42404 | -176.57265 | 34997 ft | 500 kts | 104° |
| 2026-05-05 02:35 | 40.40767 | -176.48403 | 34997 ft | 500 kts | 104° |
| 2026-05-05 02:36 | 40.39135 | -176.39611 | 34997 ft | 500 kts | 104° |
| 2026-05-05 02:36 | 40.37485 | -176.30763 | 34997 ft | 500 kts | 104° |
| 2026-05-05 02:37 | 40.35827 | -176.21916 | 34997 ft | 500 kts | 104° |
| 2026-05-05 02:37 | 40.34161 | -176.13060 | 34997 ft | 500 kts | 104° |
| 2026-05-05 02:38 | 40.32501 | -176.04280 | 34997 ft | 500 kts | 104° |
| 2026-05-05 02:38 | 40.30825 | -175.95452 | 34997 ft | 500 kts | 104° |
| 2026-05-05 02:39 | 40.29142 | -175.86627 | 34997 ft | 500 kts | 105° |
| 2026-05-05 02:39 | 40.27450 | -175.77799 | 34997 ft | 500 kts | 105° |
| 2026-05-05 02:40 | 40.25755 | -175.68989 | 34997 ft | 500 kts | 105° |
| 2026-05-05 02:40 | 40.24049 | -175.60167 | 34997 ft | 500 kts | 105° |
| 2026-05-05 02:41 | 40.22351 | -175.51418 | 34997 ft | 499 kts | 105° |
| 2026-05-05 02:41 | 40.20631 | -175.42600 | 34997 ft | 499 kts | 105° |
| 2026-05-05 02:42 | 40.18907 | -175.33800 | 34997 ft | 499 kts | 105° |
| 2026-05-05 02:42 | 40.17189 | -175.25063 | 34997 ft | 499 kts | 105° |
| 2026-05-05 02:43 | 40.15453 | -175.16282 | 34997 ft | 499 kts | 105° |
| 2026-05-05 02:43 | 40.13708 | -175.07485 | 34997 ft | 499 kts | 105° |
| 2026-05-05 02:44 | 40.11959 | -174.98710 | 34997 ft | 499 kts | 105° |
| 2026-05-05 02:44 | 40.10203 | -174.89935 | 34997 ft | 499 kts | 105° |
| 2026-05-05 02:45 | 40.08450 | -174.81215 | 34997 ft | 499 kts | 105° |
| 2026-05-05 02:45 | 40.06681 | -174.72452 | 34997 ft | 499 kts | 105° |
| 2026-05-05 02:46 | 40.04904 | -174.63687 | 34997 ft | 499 kts | 105° |
| 2026-05-05 02:46 | 40.03120 | -174.54923 | 34997 ft | 499 kts | 105° |
| 2026-05-05 02:47 | 40.01333 | -174.46181 | 34997 ft | 499 kts | 105° |
| 2026-05-05 02:47 | 39.99549 | -174.37491 | 34997 ft | 499 kts | 105° |
| 2026-05-05 02:48 | 39.97746 | -174.28747 | 34997 ft | 499 kts | 106° |
| 2026-05-05 02:48 | 39.95935 | -174.19999 | 34997 ft | 499 kts | 106° |
| 2026-05-05 02:49 | 39.94120 | -174.11270 | 34997 ft | 499 kts | 106° |
| 2026-05-05 02:49 | 39.92310 | -174.02596 | 34997 ft | 499 kts | 106° |
| 2026-05-05 02:50 | 39.90482 | -173.93874 | 34997 ft | 499 kts | 106° |
| 2026-05-05 02:50 | 39.88647 | -173.85157 | 34997 ft | 499 kts | 106° |
| 2026-05-05 02:51 | 39.86806 | -173.76446 | 34997 ft | 499 kts | 106° |
| 2026-05-05 02:51 | 39.84956 | -173.67726 | 34997 ft | 499 kts | 106° |
| 2026-05-05 02:52 | 39.83103 | -173.59029 | 34997 ft | 499 kts | 106° |
| 2026-05-05 02:52 | 39.81242 | -173.50329 | 34997 ft | 499 kts | 106° |
| 2026-05-05 02:53 | 39.79388 | -173.41693 | 34997 ft | 499 kts | 106° |
| 2026-05-05 02:53 | 39.77512 | -173.32996 | 34997 ft | 499 kts | 106° |
| 2026-05-05 02:54 | 39.75633 | -173.24314 | 34997 ft | 499 kts | 107° |
| 2026-05-05 02:54 | 39.73746 | -173.15631 | 34997 ft | 499 kts | 107° |
| 2026-05-05 02:55 | 39.71866 | -173.07015 | 34997 ft | 499 kts | 107° |
| 2026-05-05 02:55 | 39.69967 | -172.98348 | 34997 ft | 499 kts | 107° |
| 2026-05-05 02:56 | 39.68063 | -172.89691 | 34997 ft | 499 kts | 107° |
| 2026-05-05 02:56 | 39.66149 | -172.81022 | 34997 ft | 499 kts | 107° |
| 2026-05-05 02:57 | 39.64231 | -172.72372 | 34997 ft | 499 kts | 107° |
| 2026-05-05 02:57 | 39.62306 | -172.63720 | 34997 ft | 499 kts | 107° |
| 2026-05-05 02:58 | 39.60389 | -172.55141 | 34997 ft | 499 kts | 107° |
| 2026-05-05 02:58 | 39.58449 | -172.46489 | 34997 ft | 499 kts | 107° |
| 2026-05-05 02:59 | 39.56507 | -172.37861 | 34997 ft | 499 kts | 107° |
| 2026-05-05 02:59 | 39.54558 | -172.29237 | 34997 ft | 499 kts | 107° |
| 2026-05-05 03:00 | 39.52599 | -172.20604 | 34997 ft | 499 kts | 107° |
| 2026-05-05 03:00 | 39.50650 | -172.12041 | 34997 ft | 499 kts | 107° |
| 2026-05-05 03:01 | 39.48682 | -172.03435 | 34997 ft | 499 kts | 107° |
| 2026-05-05 03:01 | 39.46707 | -171.94824 | 34997 ft | 499 kts | 107° |
| 2026-05-05 03:02 | 39.44724 | -171.86216 | 34997 ft | 499 kts | 107° |
| 2026-05-05 03:02 | 39.42738 | -171.77627 | 34997 ft | 499 kts | 107° |
| 2026-05-05 03:03 | 39.40756 | -171.69086 | 34997 ft | 499 kts | 108° |
| 2026-05-05 03:03 | 39.38754 | -171.60488 | 34997 ft | 499 kts | 108° |
| 2026-05-05 03:04 | 39.36748 | -171.51906 | 34997 ft | 499 kts | 108° |
| 2026-05-05 03:04 | 39.34737 | -171.43339 | 34997 ft | 499 kts | 108° |
| 2026-05-05 03:05 | 39.32732 | -171.34824 | 34997 ft | 499 kts | 108° |
| 2026-05-05 03:05 | 39.30709 | -171.26265 | 34997 ft | 499 kts | 108° |
| 2026-05-05 03:06 | 39.28676 | -171.17697 | 34997 ft | 499 kts | 108° |
| 2026-05-05 03:06 | 39.26634 | -171.09122 | 34997 ft | 499 kts | 108° |
| 2026-05-05 03:07 | 39.24590 | -171.00571 | 34997 ft | 499 kts | 108° |
| 2026-05-05 03:07 | 39.22554 | -170.92080 | 34997 ft | 499 kts | 108° |
| 2026-05-05 03:08 | 39.20500 | -170.83549 | 34997 ft | 499 kts | 108° |
| 2026-05-05 03:08 | 39.18442 | -170.75027 | 34997 ft | 499 kts | 108° |
| 2026-05-05 03:09 | 39.16371 | -170.66487 | 34997 ft | 499 kts | 108° |
| 2026-05-05 03:09 | 39.14307 | -170.58003 | 34997 ft | 499 kts | 108° |
| 2026-05-05 03:10 | 39.12227 | -170.49486 | 34997 ft | 499 kts | 108° |
| 2026-05-05 03:10 | 39.10140 | -170.40969 | 34997 ft | 499 kts | 108° |
| 2026-05-05 03:11 | 39.08080 | -170.32440 | 34997 ft | 499 kts | 108° |
| 2026-05-05 03:11 | 39.05980 | -170.23944 | 34997 ft | 499 kts | 109° |
| 2026-05-05 03:12 | 39.03877 | -170.15515 | 34997 ft | 499 kts | 109° |
| 2026-05-05 03:12 | 39.01755 | -170.07023 | 34997 ft | 499 kts | 109° |
| 2026-05-05 03:13 | 38.99621 | -169.98524 | 34997 ft | 499 kts | 109° |
| 2026-05-05 03:13 | 38.97507 | -169.90036 | 34997 ft | 499 kts | 108° |
| 2026-05-05 03:14 | 38.95406 | -169.81617 | 34997 ft | 499 kts | 109° |
| 2026-05-05 03:14 | 38.93273 | -169.73133 | 34997 ft | 499 kts | 109° |
| 2026-05-05 03:15 | 38.91134 | -169.64665 | 34997 ft | 499 kts | 109° |
| 2026-05-05 03:15 | 38.88995 | -169.56200 | 34997 ft | 499 kts | 108° |
| 2026-05-05 03:16 | 38.86912 | -169.47719 | 34997 ft | 499 kts | 108° |
| 2026-05-05 03:16 | 38.84812 | -169.39308 | 34997 ft | 499 kts | 109° |
| 2026-05-05 03:17 | 38.82677 | -169.30847 | 34997 ft | 499 kts | 109° |
| 2026-05-05 03:17 | 38.80529 | -169.22386 | 34997 ft | 499 kts | 109° |
| 2026-05-05 03:18 | 38.78378 | -169.13952 | 34997 ft | 498 kts | 109° |
| 2026-05-05 03:18 | 38.76228 | -169.05554 | 34997 ft | 498 kts | 109° |
| 2026-05-05 03:19 | 38.72978 | -168.92914 | 34997 ft | 498 kts | 109° |
| 2026-05-05 03:19 | 38.70801 | -168.84483 | 34997 ft | 498 kts | 109° |
| 2026-05-05 03:20 | 38.68633 | -168.76115 | 34997 ft | 498 kts | 109° |
| 2026-05-05 03:20 | 38.66447 | -168.67705 | 34997 ft | 498 kts | 109° |
| 2026-05-05 03:21 | 38.64250 | -168.59281 | 34997 ft | 498 kts | 109° |
| 2026-05-05 03:21 | 38.62051 | -168.50878 | 34997 ft | 498 kts | 109° |
| 2026-05-05 03:22 | 38.59844 | -168.42475 | 34997 ft | 498 kts | 109° |
| 2026-05-05 03:22 | 38.57635 | -168.34091 | 34997 ft | 498 kts | 109° |
| 2026-05-05 03:23 | 38.55432 | -168.25757 | 34997 ft | 498 kts | 109° |
| 2026-05-05 03:23 | 38.53208 | -168.17370 | 34997 ft | 498 kts | 110° |
| 2026-05-05 03:24 | 38.50978 | -168.08991 | 34997 ft | 498 kts | 110° |
| 2026-05-05 03:24 | 38.48743 | -168.00617 | 34997 ft | 498 kts | 110° |
| 2026-05-05 03:25 | 38.46518 | -167.92311 | 34997 ft | 498 kts | 110° |
| 2026-05-05 03:25 | 38.44269 | -167.83940 | 34997 ft | 498 kts | 110° |
| 2026-05-05 03:26 | 38.42397 | -167.76995 | 34997 ft | 498 kts | 110° |
| 2026-05-05 03:26 | 38.40139 | -167.68643 | 34997 ft | 498 kts | 110° |
| 2026-05-05 03:27 | 38.37874 | -167.60291 | 34997 ft | 498 kts | 110° |
| 2026-05-05 03:27 | 38.35237 | -167.50603 | 34997 ft | 498 kts | 110° |
| 2026-05-05 03:28 | 38.33346 | -167.43678 | 34997 ft | 498 kts | 110° |
| 2026-05-05 03:28 | 38.31065 | -167.35348 | 34997 ft | 498 kts | 110° |
| 2026-05-05 03:29 | 38.28407 | -167.25673 | 34997 ft | 498 kts | 110° |
| 2026-05-05 03:29 | 38.26113 | -167.17353 | 34997 ft | 498 kts | 110° |
| 2026-05-05 03:30 | 38.24185 | -167.10383 | 34997 ft | 498 kts | 110° |
| 2026-05-05 03:30 | 38.21897 | -167.02133 | 34997 ft | 498 kts | 110° |
| 2026-05-05 03:31 | 38.19585 | -166.93824 | 34997 ft | 498 kts | 110° |
| 2026-05-05 03:31 | 38.17271 | -166.85532 | 34997 ft | 498 kts | 110° |
| 2026-05-05 03:32 | 38.14962 | -166.77287 | 34997 ft | 498 kts | 110° |
| 2026-05-05 03:32 | 38.12634 | -166.68999 | 34997 ft | 498 kts | 110° |
| 2026-05-05 03:33 | 38.10304 | -166.60730 | 34997 ft | 498 kts | 110° |
| 2026-05-05 03:33 | 38.07966 | -166.52457 | 34997 ft | 498 kts | 111° |
| 2026-05-05 03:34 | 38.05618 | -166.44176 | 34997 ft | 498 kts | 111° |
| 2026-05-05 03:34 | 38.03287 | -166.35978 | 34997 ft | 498 kts | 111° |
| 2026-05-05 03:35 | 38.00928 | -166.27707 | 34997 ft | 498 kts | 111° |
| 2026-05-05 03:35 | 37.98566 | -166.19456 | 34997 ft | 498 kts | 111° |
| 2026-05-05 03:36 | 37.96198 | -166.11205 | 34997 ft | 498 kts | 111° |
| 2026-05-05 03:36 | 37.93842 | -166.03022 | 34997 ft | 498 kts | 111° |
| 2026-05-05 03:37 | 37.91465 | -165.94791 | 34997 ft | 498 kts | 111° |
| 2026-05-05 03:37 | 37.89078 | -165.86553 | 34997 ft | 498 kts | 111° |
| 2026-05-05 03:38 | 37.86686 | -165.78322 | 34997 ft | 498 kts | 111° |
| 2026-05-05 03:38 | 37.84308 | -165.70159 | 34997 ft | 498 kts | 111° |
| 2026-05-05 03:39 | 37.81906 | -165.61943 | 34997 ft | 498 kts | 111° |
| 2026-05-05 03:39 | 37.79502 | -165.53745 | 34997 ft | 498 kts | 111° |
| 2026-05-05 03:40 | 37.77086 | -165.45531 | 34997 ft | 498 kts | 111° |
| 2026-05-05 03:40 | 37.74668 | -165.37335 | 34997 ft | 498 kts | 111° |
| 2026-05-05 03:41 | 37.72261 | -165.29199 | 34997 ft | 498 kts | 111° |
| 2026-05-05 03:41 | 37.69831 | -165.21012 | 34997 ft | 498 kts | 111° |
| 2026-05-05 03:42 | 37.67397 | -165.12831 | 34997 ft | 498 kts | 111° |
| 2026-05-05 03:42 | 37.64955 | -165.04653 | 34997 ft | 498 kts | 111° |
| 2026-05-05 03:43 | 37.62526 | -164.96540 | 34997 ft | 498 kts | 111° |
| 2026-05-05 03:43 | 37.60075 | -164.88378 | 34997 ft | 498 kts | 112° |
| 2026-05-05 03:44 | 37.57615 | -164.80211 | 34997 ft | 498 kts | 112° |
| 2026-05-05 03:44 | 37.55153 | -164.72060 | 34997 ft | 498 kts | 112° |
| 2026-05-05 03:45 | 37.52701 | -164.63968 | 34997 ft | 498 kts | 112° |
| 2026-05-05 03:45 | 37.50229 | -164.55829 | 34997 ft | 498 kts | 112° |
| 2026-05-05 03:46 | 37.47750 | -164.47696 | 34997 ft | 498 kts | 112° |
| 2026-05-05 03:46 | 37.45263 | -164.39557 | 34997 ft | 498 kts | 112° |
| 2026-05-05 03:47 | 37.42791 | -164.31493 | 34997 ft | 498 kts | 112° |
| 2026-05-05 03:47 | 37.40295 | -164.23372 | 34997 ft | 498 kts | 112° |
| 2026-05-05 03:48 | 37.37796 | -164.15267 | 34997 ft | 498 kts | 112° |
| 2026-05-05 03:48 | 37.35290 | -164.07159 | 34997 ft | 498 kts | 112° |
| 2026-05-05 03:49 | 37.32781 | -163.99068 | 34997 ft | 498 kts | 112° |
| 2026-05-05 03:49 | 37.30275 | -163.91007 | 34997 ft | 497 kts | 112° |
| 2026-05-05 03:50 | 37.27751 | -163.82914 | 34997 ft | 497 kts | 112° |
| 2026-05-05 03:50 | 37.25227 | -163.74843 | 34997 ft | 497 kts | 112° |
| 2026-05-05 03:51 | 37.22690 | -163.66752 | 34997 ft | 497 kts | 112° |
| 2026-05-05 03:51 | 37.20151 | -163.58678 | 34997 ft | 497 kts | 112° |
| 2026-05-05 03:52 | 37.17624 | -163.50666 | 34997 ft | 497 kts | 112° |
| 2026-05-05 03:52 | 37.15078 | -163.42619 | 34997 ft | 497 kts | 112° |
| 2026-05-05 03:53 | 37.12521 | -163.34555 | 34997 ft | 497 kts | 112° |
| 2026-05-05 03:53 | 37.09960 | -163.26503 | 34997 ft | 497 kts | 112° |
| 2026-05-05 03:54 | 37.07396 | -163.18465 | 34997 ft | 497 kts | 113° |
| 2026-05-05 03:54 | 37.04842 | -163.10478 | 34997 ft | 497 kts | 113° |
| 2026-05-05 03:55 | 37.02267 | -163.02449 | 34997 ft | 497 kts | 113° |
| 2026-05-05 03:55 | 36.99686 | -162.94426 | 34997 ft | 497 kts | 113° |
| 2026-05-05 03:56 | 36.97097 | -162.86398 | 34997 ft | 497 kts | 113° |
| 2026-05-05 03:56 | 36.94525 | -162.78443 | 34997 ft | 497 kts | 113° |
| 2026-05-05 03:57 | 36.91928 | -162.70435 | 34997 ft | 497 kts | 113° |
| 2026-05-05 03:57 | 36.89326 | -162.62432 | 34997 ft | 497 kts | 113° |
| 2026-05-05 03:58 | 36.86720 | -162.54441 | 34997 ft | 497 kts | 113° |
| 2026-05-05 03:58 | 36.84106 | -162.46446 | 34997 ft | 497 kts | 113° |
| 2026-05-05 03:59 | 36.81504 | -162.38508 | 34997 ft | 497 kts | 113° |
| 2026-05-05 03:59 | 36.78884 | -162.30539 | 34997 ft | 497 kts | 113° |
| 2026-05-05 04:00 | 36.76255 | -162.22562 | 34997 ft | 497 kts | 113° |
| 2026-05-05 04:00 | 36.73623 | -162.14600 | 34997 ft | 497 kts | 113° |
| 2026-05-05 04:01 | 36.71001 | -162.06688 | 34997 ft | 497 kts | 114° |
| 2026-05-05 04:01 | 36.68357 | -161.98731 | 34997 ft | 497 kts | 114° |
| 2026-05-05 04:02 | 36.65707 | -161.90780 | 34997 ft | 497 kts | 114° |
| 2026-05-05 04:02 | 36.63071 | -161.82890 | 34997 ft | 497 kts | 114° |
| 2026-05-05 04:03 | 36.60412 | -161.74951 | 34997 ft | 497 kts | 114° |
| 2026-05-05 04:03 | 36.57750 | -161.67025 | 34997 ft | 497 kts | 114° |
| 2026-05-05 04:04 | 36.55081 | -161.59099 | 34997 ft | 497 kts | 114° |
| 2026-05-05 04:04 | 36.52422 | -161.51225 | 34997 ft | 497 kts | 114° |
| 2026-05-05 04:05 | 36.49729 | -161.43270 | 34997 ft | 497 kts | 114° |
| 2026-05-05 04:05 | 36.47063 | -161.35416 | 34997 ft | 497 kts | 114° |
| 2026-05-05 04:06 | 36.44373 | -161.27511 | 34997 ft | 497 kts | 114° |
| 2026-05-05 04:06 | 36.41676 | -161.19607 | 34997 ft | 497 kts | 114° |
| 2026-05-05 04:07 | 36.38977 | -161.11719 | 34997 ft | 497 kts | 114° |
| 2026-05-05 04:07 | 36.36289 | -161.03884 | 34997 ft | 497 kts | 114° |
| 2026-05-05 04:08 | 36.33587 | -160.96026 | 34997 ft | 497 kts | 114° |
| 2026-05-05 04:08 | 36.30865 | -160.88133 | 34997 ft | 496 kts | 114° |
| 2026-05-05 04:09 | 36.28150 | -160.80278 | 34997 ft | 496 kts | 114° |
| 2026-05-05 04:09 | 36.25422 | -160.72405 | 34997 ft | 496 kts | 114° |
| 2026-05-05 04:10 | 36.22713 | -160.64609 | 34997 ft | 496 kts | 114° |
| 2026-05-05 04:10 | 36.19978 | -160.56758 | 34997 ft | 496 kts | 114° |
| 2026-05-05 04:11 | 36.17240 | -160.48919 | 34997 ft | 496 kts | 114° |
| 2026-05-05 04:11 | 36.14497 | -160.41085 | 34997 ft | 496 kts | 115° |
| 2026-05-05 04:12 | 36.11783 | -160.33297 | 34997 ft | 496 kts | 114° |
| 2026-05-05 04:12 | 36.09039 | -160.25457 | 34997 ft | 496 kts | 115° |
| 2026-05-05 04:13 | 36.06274 | -160.17654 | 34997 ft | 496 kts | 115° |
| 2026-05-05 04:13 | 36.03512 | -160.09881 | 34997 ft | 496 kts | 115° |
| 2026-05-05 04:14 | 36.00767 | -160.02067 | 34995 ft | 497 kts | 112° |
| 2026-05-05 04:14 | 35.98837 | -159.93873 | 34997 ft | 498 kts | 103° |
| 2026-05-05 04:15 | 35.97514 | -159.85480 | 34997 ft | 498 kts | 100° |
| 2026-05-05 04:15 | 35.96309 | -159.77068 | 34997 ft | 498 kts | 101° |
| 2026-05-05 04:16 | 35.95031 | -159.68717 | 34997 ft | 498 kts | 101° |
| 2026-05-05 04:16 | 35.93704 | -159.60333 | 34997 ft | 498 kts | 102° |
| 2026-05-05 04:17 | 35.92408 | -159.51943 | 34997 ft | 498 kts | 101° |
| 2026-05-05 04:17 | 35.91108 | -159.43556 | 34997 ft | 498 kts | 101° |
| 2026-05-05 04:18 | 35.89790 | -159.35233 | 34997 ft | 498 kts | 102° |
| 2026-05-05 04:18 | 35.88449 | -159.26860 | 34997 ft | 498 kts | 102° |
| 2026-05-05 04:19 | 35.87100 | -159.18488 | 34997 ft | 498 kts | 102° |
| 2026-05-05 04:19 | 35.85744 | -159.10125 | 34997 ft | 498 kts | 102° |
| 2026-05-05 04:20 | 35.84382 | -159.01763 | 34997 ft | 498 kts | 102° |
| 2026-05-05 04:20 | 35.83022 | -158.93452 | 34997 ft | 498 kts | 102° |
| 2026-05-05 04:21 | 35.81649 | -158.85104 | 34997 ft | 498 kts | 102° |
| 2026-05-05 04:21 | 35.80269 | -158.76746 | 34997 ft | 498 kts | 102° |
| 2026-05-05 04:22 | 35.78883 | -158.68393 | 34997 ft | 498 kts | 102° |
| 2026-05-05 04:22 | 35.77495 | -158.60062 | 34997 ft | 498 kts | 102° |
| 2026-05-05 04:23 | 35.76107 | -158.51773 | 34997 ft | 498 kts | 102° |
| 2026-05-05 04:23 | 35.74703 | -158.43423 | 34997 ft | 498 kts | 102° |
| 2026-05-05 04:24 | 35.73295 | -158.35087 | 34997 ft | 497 kts | 102° |
| 2026-05-05 04:25 | 35.71171 | -158.22580 | 34997 ft | 497 kts | 102° |
| 2026-05-05 04:25 | 35.69759 | -158.14314 | 34997 ft | 497 kts | 102° |
| 2026-05-05 04:26 | 35.68332 | -158.05996 | 34997 ft | 497 kts | 102° |
| 2026-05-05 04:26 | 35.66899 | -157.97675 | 34997 ft | 497 kts | 102° |
| 2026-05-05 04:27 | 35.65457 | -157.89343 | 34997 ft | 497 kts | 102° |
| 2026-05-05 04:27 | 35.64014 | -157.81040 | 34997 ft | 497 kts | 103° |
| 2026-05-05 04:28 | 35.62573 | -157.72781 | 34997 ft | 497 kts | 103° |
| 2026-05-05 04:28 | 35.61116 | -157.64467 | 34997 ft | 497 kts | 103° |
| 2026-05-05 04:29 | 35.59654 | -157.56161 | 34997 ft | 497 kts | 103° |
| 2026-05-05 04:29 | 35.58186 | -157.47857 | 34997 ft | 497 kts | 103° |
| 2026-05-05 04:30 | 35.56715 | -157.39573 | 34997 ft | 497 kts | 103° |
| 2026-05-05 04:30 | 35.55247 | -157.31338 | 34997 ft | 497 kts | 103° |
| 2026-05-05 04:31 | 35.53764 | -157.23052 | 34997 ft | 497 kts | 103° |
| 2026-05-05 04:31 | 35.52272 | -157.14751 | 34997 ft | 497 kts | 103° |
| 2026-05-05 04:32 | 35.50776 | -157.06464 | 34997 ft | 497 kts | 103° |
| 2026-05-05 04:32 | 35.49283 | -156.98229 | 34997 ft | 497 kts | 103° |
| 2026-05-05 04:33 | 35.47776 | -156.89953 | 34997 ft | 497 kts | 103° |
| 2026-05-05 04:33 | 35.46265 | -156.81683 | 34997 ft | 497 kts | 103° |
| 2026-05-05 04:34 | 35.44748 | -156.73414 | 34997 ft | 497 kts | 103° |
| 2026-05-05 04:34 | 35.43225 | -156.65150 | 34997 ft | 497 kts | 103° |
| 2026-05-05 04:35 | 35.41706 | -156.56941 | 34997 ft | 497 kts | 103° |
| 2026-05-05 04:35 | 35.40171 | -156.48681 | 34997 ft | 497 kts | 103° |
| 2026-05-05 04:36 | 35.38631 | -156.40421 | 34997 ft | 497 kts | 103° |
| 2026-05-05 04:36 | 35.37095 | -156.32220 | 34997 ft | 497 kts | 103° |
| 2026-05-05 04:37 | 35.35547 | -156.23987 | 34997 ft | 497 kts | 103° |
| 2026-05-05 04:37 | 35.33989 | -156.15731 | 34997 ft | 497 kts | 104° |
| 2026-05-05 04:38 | 35.32427 | -156.07491 | 34997 ft | 497 kts | 104° |
| 2026-05-05 04:38 | 35.30868 | -155.99298 | 34997 ft | 497 kts | 104° |
| 2026-05-05 04:39 | 35.29298 | -155.91078 | 34997 ft | 497 kts | 104° |
| 2026-05-05 04:39 | 35.27718 | -155.82840 | 34997 ft | 497 kts | 104° |
| 2026-05-05 04:40 | 35.26133 | -155.74609 | 34997 ft | 497 kts | 104° |
| 2026-05-05 04:40 | 35.24543 | -155.66379 | 34997 ft | 497 kts | 104° |
| 2026-05-05 04:41 | 35.22959 | -155.58215 | 34997 ft | 497 kts | 104° |
| 2026-05-05 04:41 | 35.21359 | -155.50002 | 34997 ft | 497 kts | 104° |
| 2026-05-05 04:42 | 35.19753 | -155.41790 | 34997 ft | 497 kts | 104° |
| 2026-05-05 04:42 | 35.18142 | -155.33580 | 34997 ft | 497 kts | 104° |
| 2026-05-05 04:43 | 35.16523 | -155.25366 | 34997 ft | 497 kts | 104° |
| 2026-05-05 04:43 | 35.14913 | -155.17225 | 34997 ft | 497 kts | 104° |
| 2026-05-05 04:44 | 35.13284 | -155.09021 | 34997 ft | 497 kts | 104° |
| 2026-05-05 04:44 | 35.11652 | -155.00828 | 34997 ft | 497 kts | 104° |
| 2026-05-05 04:45 | 35.10013 | -154.92637 | 34997 ft | 497 kts | 104° |
| 2026-05-05 04:45 | 35.08379 | -154.84497 | 34997 ft | 497 kts | 104° |
| 2026-05-05 04:46 | 35.06731 | -154.76323 | 34997 ft | 496 kts | 104° |
| 2026-05-05 04:46 | 35.05076 | -154.68143 | 34997 ft | 496 kts | 104° |
| 2026-05-05 04:47 | 35.03417 | -154.59970 | 34997 ft | 496 kts | 104° |
| 2026-05-05 04:47 | 35.01749 | -154.51784 | 34997 ft | 496 kts | 104° |
| 2026-05-05 04:48 | 35.00089 | -154.43671 | 34997 ft | 496 kts | 104° |
| 2026-05-05 04:48 | 34.98414 | -154.35513 | 34997 ft | 496 kts | 105° |
| 2026-05-05 04:49 | 34.96731 | -154.27345 | 34997 ft | 496 kts | 105° |
| 2026-05-05 04:49 | 34.95044 | -154.19189 | 34997 ft | 496 kts | 105° |
| 2026-05-05 04:50 | 34.93361 | -154.11081 | 34997 ft | 496 kts | 105° |
| 2026-05-05 04:50 | 34.91664 | -154.02932 | 34997 ft | 496 kts | 105° |
| 2026-05-05 04:51 | 34.89963 | -153.94798 | 34997 ft | 496 kts | 105° |
| 2026-05-05 04:51 | 34.88252 | -153.86640 | 34997 ft | 496 kts | 105° |
| 2026-05-05 04:52 | 34.86540 | -153.78511 | 34997 ft | 496 kts | 105° |
| 2026-05-05 04:52 | 34.84832 | -153.70431 | 34997 ft | 496 kts | 105° |
| 2026-05-05 04:53 | 34.83106 | -153.62294 | 34997 ft | 496 kts | 105° |
| 2026-05-05 04:53 | 34.81376 | -153.54164 | 34997 ft | 496 kts | 105° |
| 2026-05-05 04:54 | 34.79641 | -153.46041 | 34997 ft | 496 kts | 105° |
| 2026-05-05 04:54 | 34.77912 | -153.37973 | 34997 ft | 496 kts | 105° |
| 2026-05-05 04:55 | 34.76166 | -153.29857 | 34997 ft | 496 kts | 105° |
| 2026-05-05 04:55 | 34.74415 | -153.21742 | 34997 ft | 496 kts | 105° |
| 2026-05-05 04:56 | 34.72669 | -153.13684 | 34997 ft | 496 kts | 105° |
| 2026-05-05 04:56 | 34.70896 | -153.05525 | 34997 ft | 496 kts | 105° |
| 2026-05-05 04:57 | 34.69144 | -152.97495 | 34997 ft | 496 kts | 105° |
| 2026-05-05 04:57 | 34.67371 | -152.89391 | 34997 ft | 496 kts | 105° |
| 2026-05-05 04:58 | 34.65590 | -152.81284 | 34997 ft | 496 kts | 105° |
| 2026-05-05 04:58 | 34.63808 | -152.73198 | 34997 ft | 496 kts | 105° |
| 2026-05-05 04:59 | 34.62033 | -152.65171 | 34997 ft | 496 kts | 106° |
| 2026-05-05 04:59 | 34.60241 | -152.57092 | 34997 ft | 496 kts | 106° |
| 2026-05-05 05:00 | 34.58440 | -152.49004 | 34997 ft | 496 kts | 106° |
| 2026-05-05 05:00 | 34.56648 | -152.40981 | 34997 ft | 496 kts | 106° |
| 2026-05-05 05:01 | 34.54840 | -152.32914 | 34997 ft | 496 kts | 106° |
| 2026-05-05 05:01 | 34.53025 | -152.24843 | 34997 ft | 496 kts | 106° |
| 2026-05-05 05:02 | 34.51205 | -152.16779 | 34997 ft | 496 kts | 106° |
| 2026-05-05 05:02 | 34.49396 | -152.08787 | 34997 ft | 496 kts | 106° |
| 2026-05-05 05:03 | 34.47565 | -152.00726 | 34997 ft | 496 kts | 106° |
| 2026-05-05 05:03 | 34.45731 | -151.92680 | 34997 ft | 496 kts | 106° |
| 2026-05-05 05:04 | 34.43888 | -151.84620 | 34997 ft | 496 kts | 106° |
| 2026-05-05 05:04 | 34.42057 | -151.76637 | 34997 ft | 496 kts | 106° |
| 2026-05-05 05:05 | 34.40205 | -151.68594 | 34997 ft | 496 kts | 106° |
| 2026-05-05 05:05 | 34.38350 | -151.60558 | 34997 ft | 496 kts | 106° |
| 2026-05-05 05:06 | 34.36489 | -151.52528 | 34997 ft | 496 kts | 106° |
| 2026-05-05 05:06 | 34.34624 | -151.44504 | 34997 ft | 496 kts | 107° |
| 2026-05-05 05:07 | 34.32765 | -151.36531 | 34997 ft | 495 kts | 107° |
| 2026-05-05 05:07 | 34.30889 | -151.28512 | 34997 ft | 495 kts | 107° |
| 2026-05-05 05:08 | 34.29009 | -151.20502 | 34997 ft | 495 kts | 107° |
| 2026-05-05 05:08 | 34.27132 | -151.12530 | 34997 ft | 495 kts | 107° |
| 2026-05-05 05:09 | 34.25242 | -151.04527 | 34997 ft | 495 kts | 107° |
| 2026-05-05 05:09 | 34.23347 | -150.96531 | 34997 ft | 495 kts | 107° |
| 2026-05-05 05:10 | 34.21443 | -150.88520 | 34997 ft | 495 kts | 107° |
| 2026-05-05 05:10 | 34.19538 | -150.80532 | 34997 ft | 495 kts | 107° |
| 2026-05-05 05:11 | 34.17638 | -150.72592 | 34997 ft | 495 kts | 107° |
| 2026-05-05 05:11 | 34.15721 | -150.64602 | 34997 ft | 495 kts | 107° |
| 2026-05-05 05:12 | 34.13798 | -150.56614 | 34997 ft | 495 kts | 107° |
| 2026-05-05 05:12 | 34.11874 | -150.48644 | 34997 ft | 495 kts | 107° |
| 2026-05-05 05:13 | 34.09955 | -150.40724 | 34997 ft | 495 kts | 107° |
| 2026-05-05 05:13 | 34.08039 | -150.32732 | 34997 ft | 495 kts | 107° |
| 2026-05-05 05:14 | 34.06101 | -150.24757 | 34997 ft | 495 kts | 107° |
| 2026-05-05 05:14 | 34.04143 | -150.16797 | 34997 ft | 495 kts | 107° |
| 2026-05-05 05:15 | 34.02185 | -150.08859 | 34997 ft | 495 kts | 107° |
| 2026-05-05 05:15 | 34.00234 | -150.00952 | 34997 ft | 495 kts | 107° |
| 2026-05-05 05:16 | 33.98536 | -149.92900 | 34997 ft | 496 kts | 103° |
| 2026-05-05 05:16 | 33.97158 | -149.84781 | 34997 ft | 496 kts | 102° |
| 2026-05-05 05:17 | 33.95759 | -149.76702 | 34997 ft | 496 kts | 103° |
| 2026-05-05 05:17 | 33.94302 | -149.68589 | 34997 ft | 495 kts | 103° |
| 2026-05-05 05:18 | 33.92826 | -149.60491 | 34997 ft | 495 kts | 103° |
| 2026-05-05 05:18 | 33.91387 | -149.52373 | 34997 ft | 495 kts | 102° |
| 2026-05-05 05:19 | 33.89936 | -149.44264 | 34997 ft | 495 kts | 103° |
| 2026-05-05 05:19 | 33.88473 | -149.36220 | 34997 ft | 495 kts | 103° |
| 2026-05-05 05:20 | 33.86990 | -149.28124 | 34997 ft | 495 kts | 103° |
| 2026-05-05 05:20 | 33.85498 | -149.20031 | 34997 ft | 495 kts | 103° |
| 2026-05-05 05:21 | 33.84004 | -149.11956 | 34997 ft | 495 kts | 103° |
| 2026-05-05 05:21 | 33.82510 | -149.03917 | 34997 ft | 495 kts | 103° |
| 2026-05-05 05:22 | 33.81004 | -148.95845 | 34997 ft | 495 kts | 103° |
| 2026-05-05 05:22 | 33.79490 | -148.87761 | 34997 ft | 495 kts | 103° |
| 2026-05-05 05:23 | 33.77975 | -148.79704 | 34997 ft | 495 kts | 103° |
| 2026-05-05 05:23 | 33.76460 | -148.71676 | 34997 ft | 495 kts | 103° |
| 2026-05-05 05:24 | 33.74931 | -148.63605 | 34997 ft | 495 kts | 103° |
| 2026-05-05 05:24 | 33.73397 | -148.55540 | 34997 ft | 495 kts | 103° |
| 2026-05-05 05:25 | 33.71859 | -148.47482 | 34997 ft | 495 kts | 103° |
| 2026-05-05 05:25 | 33.70314 | -148.39416 | 34997 ft | 495 kts | 103° |
| 2026-05-05 05:26 | 33.68767 | -148.31370 | 34997 ft | 495 kts | 103° |
| 2026-05-05 05:26 | 33.67222 | -148.23370 | 34997 ft | 495 kts | 104° |
| 2026-05-05 05:27 | 33.65666 | -148.15334 | 34997 ft | 495 kts | 104° |
| 2026-05-05 05:27 | 33.63317 | -148.03269 | 34997 ft | 495 kts | 104° |
| 2026-05-05 05:28 | 33.61745 | -147.95227 | 34997 ft | 495 kts | 104° |
| 2026-05-05 05:28 | 33.60178 | -147.87244 | 34997 ft | 495 kts | 104° |
| 2026-05-05 05:29 | 33.58595 | -147.79206 | 34997 ft | 495 kts | 104° |
| 2026-05-05 05:29 | 33.57010 | -147.71190 | 34997 ft | 495 kts | 104° |
| 2026-05-05 05:30 | 33.55417 | -147.63160 | 34997 ft | 495 kts | 104° |
| 2026-05-05 05:30 | 33.53821 | -147.55147 | 34997 ft | 495 kts | 104° |
| 2026-05-05 05:31 | 33.52228 | -147.47173 | 34997 ft | 495 kts | 104° |
| 2026-05-05 05:31 | 33.50622 | -147.39167 | 34997 ft | 495 kts | 104° |
| 2026-05-05 05:32 | 33.49007 | -147.31142 | 34997 ft | 495 kts | 104° |
| 2026-05-05 05:32 | 33.47392 | -147.23145 | 34997 ft | 495 kts | 104° |
| 2026-05-05 05:33 | 33.45779 | -147.15189 | 34997 ft | 495 kts | 104° |
| 2026-05-05 05:33 | 33.44150 | -147.07179 | 34997 ft | 495 kts | 104° |
| 2026-05-05 05:34 | 33.42518 | -146.99186 | 34997 ft | 494 kts | 104° |
| 2026-05-05 05:34 | 33.40882 | -146.91199 | 34997 ft | 494 kts | 104° |
| 2026-05-05 05:35 | 33.39248 | -146.83254 | 34997 ft | 494 kts | 104° |
| 2026-05-05 05:35 | 33.37603 | -146.75279 | 34997 ft | 494 kts | 104° |
| 2026-05-05 05:36 | 33.35948 | -146.67283 | 34997 ft | 494 kts | 104° |
| 2026-05-05 05:36 | 33.34292 | -146.59310 | 34997 ft | 494 kts | 104° |
| 2026-05-05 05:37 | 33.32627 | -146.51326 | 34997 ft | 494 kts | 104° |
| 2026-05-05 05:37 | 33.30973 | -146.43414 | 34997 ft | 494 kts | 105° |
| 2026-05-05 05:38 | 33.29298 | -146.35437 | 34997 ft | 494 kts | 105° |
| 2026-05-05 05:38 | 33.27621 | -146.27473 | 34997 ft | 494 kts | 105° |
| 2026-05-05 05:39 | 33.25940 | -146.19518 | 34997 ft | 494 kts | 105° |
| 2026-05-05 05:39 | 33.24254 | -146.11564 | 34997 ft | 494 kts | 105° |
| 2026-05-05 05:40 | 33.22570 | -146.03649 | 34997 ft | 494 kts | 105° |
| 2026-05-05 05:40 | 33.20872 | -145.95696 | 34997 ft | 494 kts | 105° |
| 2026-05-05 05:41 | 33.19171 | -145.87756 | 34997 ft | 494 kts | 105° |
| 2026-05-05 05:41 | 33.17462 | -145.79803 | 34997 ft | 494 kts | 105° |
| 2026-05-05 05:42 | 33.15752 | -145.71869 | 34997 ft | 494 kts | 105° |
| 2026-05-05 05:42 | 33.14045 | -145.63978 | 34997 ft | 494 kts | 105° |
| 2026-05-05 05:43 | 33.12323 | -145.56043 | 34997 ft | 494 kts | 105° |
| 2026-05-05 05:43 | 33.10594 | -145.48106 | 34997 ft | 494 kts | 105° |
| 2026-05-05 05:44 | 33.08876 | -145.40242 | 34997 ft | 494 kts | 105° |
| 2026-05-05 05:44 | 33.07165 | -145.32315 | 34997 ft | 494 kts | 105° |
| 2026-05-05 05:45 | 33.05427 | -145.24396 | 34997 ft | 494 kts | 105° |
| 2026-05-05 05:45 | 33.03671 | -145.16487 | 34997 ft | 494 kts | 105° |
| 2026-05-05 05:46 | 33.01906 | -145.08562 | 34997 ft | 494 kts | 105° |
| 2026-05-05 05:46 | 33.00367 | -145.00655 | 34997 ft | 494 kts | 97° |
| 2026-05-05 05:47 | 33.00081 | -144.92476 | 34997 ft | 495 kts | 90° |
| 2026-05-05 05:47 | 33.00231 | -144.84284 | 34997 ft | 495 kts | 88° |
| 2026-05-05 05:48 | 33.00397 | -144.76090 | 34997 ft | 495 kts | 89° |
| 2026-05-05 05:48 | 33.00536 | -144.67951 | 34997 ft | 495 kts | 89° |
| 2026-05-05 05:49 | 33.00661 | -144.59759 | 34997 ft | 495 kts | 89° |
| 2026-05-05 05:49 | 33.00830 | -144.51571 | 34997 ft | 495 kts | 88° |
| 2026-05-05 05:50 | 33.00984 | -144.43379 | 34997 ft | 494 kts | 89° |
| 2026-05-05 05:50 | 33.01116 | -144.35201 | 34997 ft | 494 kts | 89° |
| 2026-05-05 05:51 | 33.01237 | -144.27052 | 34997 ft | 494 kts | 89° |
| 2026-05-05 05:51 | 33.01351 | -144.18857 | 34997 ft | 494 kts | 89° |
| 2026-05-05 05:52 | 33.01459 | -144.10669 | 34997 ft | 494 kts | 89° |
| 2026-05-05 05:52 | 33.01561 | -144.02481 | 34997 ft | 494 kts | 89° |
| 2026-05-05 05:53 | 33.01642 | -143.95685 | 34997 ft | 494 kts | 89° |
| 2026-05-05 05:53 | 33.01749 | -143.86154 | 34997 ft | 494 kts | 89° |
| 2026-05-05 05:54 | 33.01836 | -143.77969 | 34997 ft | 494 kts | 89° |
| 2026-05-05 05:54 | 33.01916 | -143.69816 | 34997 ft | 494 kts | 89° |
| 2026-05-05 05:55 | 33.02032 | -143.57099 | 34997 ft | 494 kts | 89° |
| 2026-05-05 05:55 | 33.02181 | -143.38060 | 34997 ft | 494 kts | 89° |
| 2026-05-05 05:56 | 33.02349 | -143.09979 | 34997 ft | 494 kts | 90° |
| 2026-05-05 05:56 | 33.02449 | -142.82755 | 34997 ft | 494 kts | 90° |
| 2026-05-05 05:57 | 33.02492 | -142.50022 | 34997 ft | 494 kts | 90° |
| 2026-05-05 05:57 | 33.02449 | -142.17298 | 34997 ft | 494 kts | 90° |
| 2026-05-05 05:58 | 33.02292 | -141.79249 | 34997 ft | 494 kts | 90° |
| 2026-05-05 05:58 | 33.02065 | -141.46558 | 34997 ft | 494 kts | 90° |
| 2026-05-05 05:59 | 33.01811 | -141.19346 | 34997 ft | 494 kts | 91° |
| 2026-05-05 05:59 | 33.01428 | -140.86661 | 34997 ft | 493 kts | 91° |
| 2026-05-05 06:00 | 33.00875 | -140.48631 | 34997 ft | 493 kts | 91° |
| 2026-05-05 06:00 | 33.00452 | -140.21239 | 34997 ft | 493 kts | 91° |
| 2026-05-05 06:01 | 33.00106 | -139.88643 | 34997 ft | 493 kts | 87° |
| 2026-05-05 06:01 | 33.02806 | -139.56352 | 34997 ft | 493 kts | 83° |
| 2026-05-05 06:02 | 33.05239 | -139.23552 | 34997 ft | 493 kts | 86° |
| 2026-05-05 06:02 | 33.07094 | -138.91152 | 34997 ft | 493 kts | 85° |
| 2026-05-05 06:03 | 33.09059 | -138.58546 | 34997 ft | 493 kts | 86° |
| 2026-05-05 06:03 | 33.10914 | -138.25994 | 34997 ft | 493 kts | 86° |
| 2026-05-05 06:04 | 33.12687 | -137.93385 | 34997 ft | 493 kts | 86° |
| 2026-05-05 06:04 | 33.14366 | -137.60964 | 34997 ft | 492 kts | 86° |
| 2026-05-05 06:05 | 33.15970 | -137.28320 | 34997 ft | 492 kts | 86° |
| 2026-05-05 06:05 | 33.17487 | -136.95723 | 34997 ft | 492 kts | 86° |
| 2026-05-05 06:06 | 33.18922 | -136.63038 | 34997 ft | 492 kts | 87° |
| 2026-05-05 06:06 | 33.20268 | -136.30428 | 34997 ft | 492 kts | 87° |
| 2026-05-05 06:07 | 33.21531 | -135.97758 | 34997 ft | 492 kts | 87° |
| 2026-05-05 06:07 | 33.22709 | -135.65068 | 34997 ft | 492 kts | 87° |
| 2026-05-05 06:08 | 33.23793 | -135.32628 | 34997 ft | 492 kts | 88° |
| 2026-05-05 06:08 | 33.24799 | -134.99961 | 34997 ft | 492 kts | 88° |
| 2026-05-05 06:09 | 33.25718 | -134.67357 | 34997 ft | 492 kts | 88° |
| 2026-05-05 06:09 | 33.26553 | -134.34693 | 34997 ft | 491 kts | 88° |
| 2026-05-05 06:10 | 33.27303 | -134.02052 | 34997 ft | 491 kts | 88° |
| 2026-05-05 06:10 | 33.27963 | -133.69605 | 34997 ft | 491 kts | 89° |
| 2026-05-05 06:11 | 33.30671 | -133.37184 | 34997 ft | 491 kts | 78° |
| 2026-05-05 06:11 | 33.36253 | -133.05269 | 34997 ft | 490 kts | 79° |
| 2026-05-05 06:12 | 33.40427 | -132.73018 | 34997 ft | 490 kts | 81° |
| 2026-05-05 06:12 | 33.44664 | -132.40767 | 34997 ft | 490 kts | 80° |
| 2026-05-05 06:13 | 33.48837 | -132.08690 | 34997 ft | 490 kts | 81° |
| 2026-05-05 06:13 | 33.52939 | -131.76426 | 34997 ft | 490 kts | 81° |
| 2026-05-05 06:14 | 33.56962 | -131.44091 | 34997 ft | 490 kts | 81° |
| 2026-05-05 06:14 | 33.60874 | -131.11954 | 34997 ft | 490 kts | 81° |
| 2026-05-05 06:15 | 33.64727 | -130.79586 | 34997 ft | 490 kts | 81° |
| 2026-05-05 06:15 | 33.68485 | -130.47280 | 34997 ft | 490 kts | 82° |
| 2026-05-05 06:16 | 33.72172 | -130.14826 | 34997 ft | 489 kts | 82° |
| 2026-05-05 06:16 | 33.75764 | -129.82435 | 34997 ft | 489 kts | 82° |
| 2026-05-05 06:17 | 33.79255 | -129.50179 | 34997 ft | 489 kts | 82° |
| 2026-05-05 06:17 | 33.82682 | -129.17695 | 34997 ft | 489 kts | 82° |
| 2026-05-05 06:18 | 33.86018 | -128.85224 | 34997 ft | 489 kts | 83° |
| 2026-05-05 06:18 | 33.89022 | -128.52737 | 34997 ft | 489 kts | 84° |
| 2026-05-05 06:19 | 33.91788 | -128.20160 | 34997 ft | 489 kts | 83° |
| 2026-05-05 06:19 | 33.94577 | -127.87808 | 34997 ft | 489 kts | 84° |
| 2026-05-05 06:20 | 33.97228 | -127.55248 | 34997 ft | 489 kts | 84° |
| 2026-05-05 06:20 | 33.99804 | -127.22633 | 34997 ft | 488 kts | 84° |
| 2026-05-05 06:21 | 34.02292 | -126.90029 | 34997 ft | 488 kts | 84° |
| 2026-05-05 06:21 | 34.04675 | -126.57667 | 34997 ft | 488 kts | 85° |
| 2026-05-05 06:22 | 34.06990 | -126.25047 | 34997 ft | 488 kts | 85° |
| 2026-05-05 06:22 | 34.08615 | -126.01367 | 34997 ft | 488 kts | 85° |
| 2026-05-05 06:23 | 34.09162 | -125.93218 | 34997 ft | 488 kts | 85° |
| 2026-05-05 06:23 | 34.09704 | -125.85068 | 34997 ft | 488 kts | 85° |
| 2026-05-05 06:24 | 34.10243 | -125.76906 | 34997 ft | 488 kts | 85° |
| 2026-05-05 06:24 | 34.10776 | -125.68743 | 34997 ft | 488 kts | 85° |
| 2026-05-05 06:25 | 34.11303 | -125.60589 | 34997 ft | 488 kts | 85° |
| 2026-05-05 06:25 | 34.11827 | -125.52406 | 34997 ft | 488 kts | 85° |
| 2026-05-05 06:26 | 34.12343 | -125.44262 | 34997 ft | 488 kts | 85° |
| 2026-05-05 06:26 | 34.12852 | -125.36143 | 34997 ft | 488 kts | 85° |
| 2026-05-05 06:27 | 34.13609 | -125.23895 | 34997 ft | 488 kts | 85° |
| 2026-05-05 06:28 | 34.14106 | -125.15738 | 34997 ft | 488 kts | 85° |
| 2026-05-05 06:28 | 34.14598 | -125.07580 | 34997 ft | 488 kts | 85° |
| 2026-05-05 06:29 | 34.15086 | -124.99403 | 34997 ft | 488 kts | 85° |
| 2026-05-05 06:29 | 34.15568 | -124.91241 | 34997 ft | 488 kts | 85° |
| 2026-05-05 06:30 | 34.16044 | -124.83079 | 34997 ft | 487 kts | 86° |
| 2026-05-05 06:30 | 34.16515 | -124.74908 | 34997 ft | 487 kts | 86° |
| 2026-05-05 06:31 | 34.16977 | -124.66801 | 34997 ft | 487 kts | 86° |
| 2026-05-05 06:31 | 34.17436 | -124.58641 | 34997 ft | 487 kts | 86° |
| 2026-05-05 06:32 | 34.17891 | -124.50467 | 34997 ft | 487 kts | 86° |
| 2026-05-05 06:32 | 34.18339 | -124.42318 | 34997 ft | 487 kts | 86° |
| 2026-05-05 06:33 | 34.18784 | -124.34133 | 34997 ft | 487 kts | 86° |
| 2026-05-05 06:33 | 34.19218 | -124.26029 | 34997 ft | 487 kts | 86° |
| 2026-05-05 06:34 | 34.19651 | -124.17865 | 34997 ft | 487 kts | 86° |
| 2026-05-05 06:34 | 34.20078 | -124.09695 | 34997 ft | 487 kts | 86° |
| 2026-05-05 06:35 | 34.20500 | -124.01521 | 34997 ft | 487 kts | 86° |
| 2026-05-05 06:35 | 34.20916 | -123.93361 | 34997 ft | 487 kts | 86° |
| 2026-05-05 06:36 | 34.21325 | -123.85238 | 34997 ft | 487 kts | 86° |
| 2026-05-05 06:36 | 34.21733 | -123.77013 | 34997 ft | 487 kts | 86° |
| 2026-05-05 06:37 | 34.22130 | -123.68913 | 34997 ft | 487 kts | 86° |
| 2026-05-05 06:37 | 34.22525 | -123.60742 | 34997 ft | 487 kts | 86° |
| 2026-05-05 06:38 | 34.22914 | -123.52574 | 34997 ft | 487 kts | 86° |
| 2026-05-05 06:38 | 34.23318 | -123.44394 | 34997 ft | 487 kts | 86° |
| 2026-05-05 06:39 | 34.23710 | -123.36226 | 34997 ft | 487 kts | 86° |
| 2026-05-05 06:39 | 34.24071 | -123.28054 | 34997 ft | 487 kts | 86° |
| 2026-05-05 06:40 | 34.24425 | -123.19941 | 34997 ft | 487 kts | 87° |
| 2026-05-05 06:40 | 34.24780 | -123.11770 | 34997 ft | 487 kts | 86° |
| 2026-05-05 06:41 | 34.24838 | -123.03587 | 34996 ft | 487 kts | 93° |
| 2026-05-05 06:41 | 34.24389 | -122.95439 | 34997 ft | 487 kts | 94° |
| 2026-05-05 06:42 | 34.23948 | -122.87322 | 34997 ft | 487 kts | 94° |
| 2026-05-05 06:42 | 34.23544 | -122.79170 | 34997 ft | 487 kts | 94° |
| 2026-05-05 06:43 | 34.23147 | -122.71003 | 34997 ft | 487 kts | 94° |
| 2026-05-05 06:43 | 34.22780 | -122.62826 | 34997 ft | 487 kts | 93° |
| 2026-05-05 06:44 | 34.22427 | -122.54669 | 34997 ft | 487 kts | 93° |
| 2026-05-05 06:44 | 34.22050 | -122.46566 | 34997 ft | 487 kts | 93° |
| 2026-05-05 06:45 | 34.21722 | -122.38393 | 34997 ft | 487 kts | 90° |
| 2026-05-05 06:45 | 34.21613 | -122.30212 | 34997 ft | 487 kts | 92° |
| 2026-05-05 06:46 | 34.21241 | -122.22056 | 34997 ft | 486 kts | 94° |
| 2026-05-05 06:46 | 34.20784 | -122.13955 | 34997 ft | 486 kts | 94° |
| 2026-05-05 06:47 | 34.20327 | -122.05800 | 34997 ft | 486 kts | 94° |
| 2026-05-05 06:47 | 34.19869 | -121.97652 | 34997 ft | 486 kts | 94° |
| 2026-05-05 06:48 | 34.19407 | -121.89515 | 34997 ft | 486 kts | 94° |
| 2026-05-05 06:48 | 34.18938 | -121.81351 | 34997 ft | 486 kts | 94° |
| 2026-05-05 06:49 | 34.18466 | -121.73217 | 34997 ft | 486 kts | 94° |
| 2026-05-05 06:49 | 34.17990 | -121.65118 | 34997 ft | 484 kts | 94° |
| 2026-05-05 06:49 | 34.17754 | -121.61124 | 34980 ft | 471 kts | 94° |
| 2026-05-05 06:50 | 34.17521 | -121.57201 | 34732 ft | 464 kts | 94° |
| 2026-05-05 06:50 | 34.17291 | -121.53353 | 34459 ft | 458 kts | 94° |
| 2026-05-05 06:50 | 34.17061 | -121.49532 | 34038 ft | 456 kts | 94° |
| 2026-05-05 06:50 | 34.16831 | -121.45719 | 33635 ft | 454 kts | 94° |
| 2026-05-05 06:51 | 34.16601 | -121.41928 | 33239 ft | 451 kts | 94° |
| 2026-05-05 06:51 | 34.16372 | -121.38167 | 32851 ft | 448 kts | 94° |
| 2026-05-05 06:51 | 34.16161 | -121.34416 | 32466 ft | 446 kts | 94° |
| 2026-05-05 06:51 | 34.15969 | -121.30700 | 32084 ft | 443 kts | 94° |
| 2026-05-05 06:52 | 34.15760 | -121.27037 | 31705 ft | 440 kts | 94° |
| 2026-05-05 06:52 | 34.15537 | -121.23363 | 31324 ft | 438 kts | 94° |
| 2026-05-05 06:52 | 34.15307 | -121.19659 | 30938 ft | 435 kts | 94° |
| 2026-05-05 06:52 | 34.15083 | -121.16079 | 30565 ft | 433 kts | 95° |
| 2026-05-05 06:53 | 34.14857 | -121.12473 | 30186 ft | 430 kts | 95° |
| 2026-05-05 06:53 | 34.14632 | -121.08874 | 29800 ft | 428 kts | 94° |
| 2026-05-05 06:53 | 34.14410 | -121.05297 | 29400 ft | 426 kts | 94° |
| 2026-05-05 06:53 | 34.14191 | -121.01739 | 28987 ft | 424 kts | 94° |
| 2026-05-05 06:54 | 34.14023 | -120.98200 | 28570 ft | 423 kts | 91° |
| 2026-05-05 06:54 | 34.14080 | -120.94647 | 28153 ft | 421 kts | 87° |
| 2026-05-05 06:54 | 34.14302 | -120.91130 | 27755 ft | 419 kts | 84° |
| 2026-05-05 06:54 | 34.14614 | -120.87691 | 27371 ft | 417 kts | 83° |
| 2026-05-05 06:55 | 34.14959 | -120.84230 | 26982 ft | 415 kts | 83° |
| 2026-05-05 06:55 | 34.15282 | -120.80765 | 26593 ft | 413 kts | 83° |
| 2026-05-05 06:55 | 34.15580 | -120.77321 | 26206 ft | 411 kts | 84° |
| 2026-05-05 06:55 | 34.15862 | -120.73894 | 25819 ft | 409 kts | 84° |
| 2026-05-05 06:56 | 34.16138 | -120.70485 | 25433 ft | 407 kts | 84° |
| 2026-05-05 06:56 | 34.16440 | -120.67098 | 25051 ft | 405 kts | 83° |
| 2026-05-05 06:56 | 34.16731 | -120.63721 | 24667 ft | 403 kts | 84° |
| 2026-05-05 06:56 | 34.17005 | -120.60363 | 24284 ft | 402 kts | 84° |
| 2026-05-05 06:57 | 34.17269 | -120.57016 | 23903 ft | 400 kts | 84° |
| 2026-05-05 06:57 | 34.17525 | -120.53725 | 23526 ft | 398 kts | 84° |
| 2026-05-05 06:57 | 34.17781 | -120.50403 | 23144 ft | 396 kts | 84° |
| 2026-05-05 06:57 | 34.18035 | -120.47102 | 22763 ft | 394 kts | 84° |
| 2026-05-05 06:58 | 34.18288 | -120.43803 | 22382 ft | 393 kts | 84° |
| 2026-05-05 06:58 | 34.18539 | -120.40527 | 22001 ft | 391 kts | 84° |
| 2026-05-05 06:58 | 34.18789 | -120.37269 | 21622 ft | 390 kts | 84° |
| 2026-05-05 06:58 | 34.19039 | -120.34017 | 21242 ft | 388 kts | 84° |
| 2026-05-05 06:59 | 34.19277 | -120.30774 | 20863 ft | 386 kts | 85° |
| 2026-05-05 06:59 | 34.19436 | -120.27619 | 20980 ft | 370 kts | 87° |
| 2026-05-05 06:59 | 34.19538 | -120.24505 | 21200 ft | 372 kts | 88° |
| 2026-05-05 06:59 | 34.19631 | -120.21371 | 20828 ft | 375 kts | 88° |
| 2026-05-05 07:00 | 34.19738 | -120.18224 | 20081 ft | 376 kts | 87° |
| 2026-05-05 07:00 | 34.19850 | -120.15113 | 19365 ft | 375 kts | 87° |
| 2026-05-05 07:00 | 34.19964 | -120.11985 | 18740 ft | 369 kts | 87° |
| 2026-05-05 07:00 | 34.20077 | -120.08920 | 18115 ft | 363 kts | 87° |
| 2026-05-05 07:01 | 34.20178 | -120.05898 | 17488 ft | 357 kts | 88° |
| 2026-05-05 07:01 | 34.20199 | -120.02918 | 16864 ft | 352 kts | 90° |
| 2026-05-05 07:01 | 34.20160 | -119.99988 | 16240 ft | 348 kts | 91° |
| 2026-05-05 07:01 | 34.20095 | -119.97152 | 15628 ft | 344 kts | 91° |
| 2026-05-05 07:02 | 34.20032 | -119.94276 | 15001 ft | 340 kts | 91° |
| 2026-05-05 07:02 | 34.19977 | -119.91473 | 14383 ft | 336 kts | 91° |
| 2026-05-05 07:02 | 34.19927 | -119.88626 | 13811 ft | 333 kts | 91° |
| 2026-05-05 07:02 | 34.19881 | -119.85856 | 13468 ft | 334 kts | 91° |
| 2026-05-05 07:03 | 34.19836 | -119.83070 | 13301 ft | 329 kts | 91° |
| 2026-05-05 07:03 | 34.19793 | -119.80319 | 13096 ft | 326 kts | 91° |
| 2026-05-05 07:03 | 34.19750 | -119.77605 | 13017 ft | 322 kts | 91° |
| 2026-05-05 07:03 | 34.19710 | -119.74884 | 12998 ft | 324 kts | 91° |
| 2026-05-05 07:04 | 34.19696 | -119.72169 | 12997 ft | 325 kts | 90° |
| 2026-05-05 07:04 | 34.19677 | -119.69443 | 12997 ft | 325 kts | 90° |
| 2026-05-05 07:04 | 34.19647 | -119.66747 | 12997 ft | 324 kts | 91° |
| 2026-05-05 07:04 | 34.19607 | -119.63994 | 12997 ft | 324 kts | 91° |
| 2026-05-05 07:05 | 34.19565 | -119.61306 | 12997 ft | 324 kts | 91° |
| 2026-05-05 07:05 | 34.19519 | -119.58576 | 12997 ft | 324 kts | 91° |
| 2026-05-05 07:05 | 34.19472 | -119.55857 | 12997 ft | 324 kts | 91° |
| 2026-05-05 07:05 | 34.19424 | -119.53139 | 12997 ft | 324 kts | 91° |
| 2026-05-05 07:06 | 34.19375 | -119.50401 | 12997 ft | 324 kts | 91° |
| 2026-05-05 07:06 | 34.19326 | -119.47680 | 12997 ft | 324 kts | 91° |
| 2026-05-05 07:06 | 34.19277 | -119.44954 | 12997 ft | 324 kts | 91° |
| 2026-05-05 07:06 | 34.19228 | -119.42233 | 12997 ft | 324 kts | 91° |
| 2026-05-05 07:07 | 34.19179 | -119.39515 | 12997 ft | 324 kts | 91° |
| 2026-05-05 07:07 | 34.19130 | -119.36792 | 12997 ft | 324 kts | 91° |
| 2026-05-05 07:07 | 34.19092 | -119.34064 | 12944 ft | 324 kts | 91° |
| 2026-05-05 07:07 | 34.19058 | -119.31349 | 12802 ft | 323 kts | 91° |
| 2026-05-05 07:08 | 34.19017 | -119.28642 | 12639 ft | 322 kts | 91° |
| 2026-05-05 07:08 | 34.18972 | -119.25979 | 12378 ft | 321 kts | 91° |
| 2026-05-05 07:08 | 34.18925 | -119.23292 | 12083 ft | 320 kts | 91° |
| 2026-05-05 07:08 | 34.18876 | -119.20616 | 11801 ft | 318 kts | 91° |
| 2026-05-05 07:09 | 34.18827 | -119.17948 | 11523 ft | 317 kts | 91° |
| 2026-05-05 07:09 | 34.18778 | -119.15306 | 11246 ft | 316 kts | 91° |
| 2026-05-05 07:09 | 34.18729 | -119.12655 | 11053 ft | 313 kts | 91° |
| 2026-05-05 07:09 | 34.18680 | -119.10012 | 10990 ft | 314 kts | 91° |
| 2026-05-05 07:10 | 34.18452 | -119.07401 | 10994 ft | 314 kts | 101° |
| 2026-05-05 07:10 | 34.17860 | -119.04864 | 10989 ft | 313 kts | 110° |
| 2026-05-05 07:10 | 34.17094 | -119.02397 | 10995 ft | 313 kts | 113° |
| 2026-05-05 07:10 | 34.16223 | -118.99989 | 10999 ft | 313 kts | 116° |
| 2026-05-05 07:11 | 34.15291 | -118.97620 | 10997 ft | 313 kts | 117° |
| 2026-05-05 07:11 | 34.14344 | -118.95263 | 10997 ft | 313 kts | 117° |
| 2026-05-05 07:11 | 34.13413 | -118.92928 | 10997 ft | 313 kts | 117° |
| 2026-05-05 07:11 | 34.12478 | -118.90564 | 10997 ft | 313 kts | 117° |
| 2026-05-05 07:12 | 34.11544 | -118.88195 | 10997 ft | 313 kts | 117° |
| 2026-05-05 07:12 | 34.10609 | -118.85822 | 10997 ft | 313 kts | 117° |
| 2026-05-05 07:12 | 34.09680 | -118.83461 | 10976 ft | 313 kts | 117° |
| 2026-05-05 07:12 | 34.08741 | -118.81076 | 10677 ft | 318 kts | 117° |
| 2026-05-05 07:13 | 34.07782 | -118.78640 | 10233 ft | 321 kts | 117° |
| 2026-05-05 07:13 | 34.06836 | -118.76235 | 10069 ft | 314 kts | 117° |
| 2026-05-05 07:13 | 34.05978 | -118.74046 | 9974 ft | 307 kts | 117° |
| 2026-05-05 07:13 | 34.05071 | -118.71733 | 9691 ft | 305 kts | 117° |
| 2026-05-05 07:14 | 34.04172 | -118.69441 | 9387 ft | 304 kts | 117° |
| 2026-05-05 07:14 | 34.03405 | -118.67069 | 9095 ft | 302 kts | 110° |
| 2026-05-05 07:14 | 34.02806 | -118.64682 | 8839 ft | 300 kts | 105° |
| 2026-05-05 07:14 | 34.02468 | -118.62206 | 8616 ft | 296 kts | 97° |
| 2026-05-05 07:15 | 34.02263 | -118.59742 | 8389 ft | 292 kts | 96° |
| 2026-05-05 07:15 | 34.02080 | -118.57358 | 8171 ft | 289 kts | 96° |
| 2026-05-05 07:15 | 34.01896 | -118.54969 | 7953 ft | 285 kts | 96° |
| 2026-05-05 07:15 | 34.01683 | -118.52609 | 7705 ft | 282 kts | 97° |
| 2026-05-05 07:16 | 34.01472 | -118.50435 | 7477 ft | 280 kts | 97° |
| 2026-05-05 07:16 | 34.01253 | -118.48053 | 7231 ft | 277 kts | 95° |
| 2026-05-05 07:16 | 34.01207 | -118.45811 | 7012 ft | 274 kts | 90° |
| 2026-05-05 07:16 | 34.01323 | -118.43503 | 6767 ft | 271 kts | 83° |
| 2026-05-05 07:17 | 34.01536 | -118.42023 | 6623 ft | 269 kts | 78° |
| 2026-05-05 07:17 | 34.02075 | -118.39116 | 6327 ft | 264 kts | 75° |
| 2026-05-05 07:17 | 34.02497 | -118.36963 | 6108 ft | 261 kts | 75° |
| 2026-05-05 07:17 | 34.02754 | -118.35564 | 6040 ft | 257 kts | 77° |
| 2026-05-05 07:18 | 34.03035 | -118.33438 | 6003 ft | 255 kts | 80° |
| 2026-05-05 07:18 | 34.03245 | -118.31306 | 5912 ft | 258 kts | 82° |
| 2026-05-05 07:18 | 34.03393 | -118.29158 | 5619 ft | 260 kts | 84° |
| 2026-05-05 07:18 | 34.03511 | -118.26960 | 5321 ft | 261 kts | 85° |
| 2026-05-05 07:19 | 34.03611 | -118.24892 | 5032 ft | 258 kts | 85° |
| 2026-05-05 07:19 | 34.03689 | -118.22661 | 4714 ft | 248 kts | 90° |
| 2026-05-05 07:19 | 34.03210 | -118.20700 | 4357 ft | 241 kts | 117° |
| 2026-05-05 07:19 | 34.02045 | -118.19352 | 4042 ft | 231 kts | 148° |
| 2026-05-05 07:20 | 34.00544 | -118.18823 | 3705 ft | 223 kts | 171° |
| 2026-05-05 07:20 | 33.99036 | -118.19026 | 3281 ft | 218 kts | 198° |
| 2026-05-05 07:20 | 33.97862 | -118.20081 | 2933 ft | 210 kts | 225° |
| 2026-05-05 07:20 | 33.97173 | -118.21617 | 2581 ft | 204 kts | 248° |
| 2026-05-05 07:21 | 33.96875 | -118.23254 | 2243 ft | 197 kts | 259° |
| 2026-05-05 07:21 | 33.96743 | -118.24747 | 2061 ft | 176 kts | 264° |
| 2026-05-05 07:21 | 33.96630 | -118.26201 | 1992 ft | 168 kts | 264° |
| 2026-05-05 07:21 | 33.96499 | -118.27612 | 2038 ft | 169 kts | 263° |
| 2026-05-05 07:22 | 33.96366 | -118.28946 | 2014 ft | 165 kts | 263° |
| 2026-05-05 07:22 | 33.96218 | -118.30408 | 1728 ft | 169 kts | 263° |
| 2026-05-05 07:22 | 33.96079 | -118.31767 | 1502 ft | 164 kts | 263° |
| 2026-05-05 07:22 | 33.95940 | -118.33125 | 1309 ft | 162 kts | 263° |
| 2026-05-05 07:23 | 33.95803 | -118.34465 | 1071 ft | 163 kts | 263° |
| 2026-05-05 07:23 | 33.95662 | -118.35842 | 841 ft | 159 kts | 263° |
| 2026-05-05 07:23 | 33.95538 | -118.37121 | 640 ft | 156 kts | 263° |
| 2026-05-05 07:23 | 33.95421 | -118.38364 | 450 ft | 152 kts | 263° |
| 2026-05-05 07:24 | 33.95298 | -118.39654 | 237 ft | 150 kts | 263° |
| 2026-05-05 07:24 | 33.95146 | -118.40850 | 144 ft | 132 kts | 261° |
| 2026-05-05 07:24 | 33.95051 | -118.41827 | 140 ft | 104 kts | 263° |
| 2026-05-05 07:24 | 33.94976 | -118.42530 | 140 ft | 44 kts | 261° |
| 2026-05-05 07:25 | 33.94950 | -118.42858 | 140 ft | 39 kts | 263° |
| 2026-05-05 07:25 | 33.94903 | -118.43084 | 140 ft | 11 kts | 210° |
| 2026-05-05 07:25 | 33.94820 | -118.43081 | 140 ft | 18 kts | 175° |
| 2026-05-05 07:25 | 33.94660 | -118.43009 | 140 ft | 30 kts | 137° |
| 2026-05-05 07:26 | 33.94636 | -118.42844 | 140 ft | 19 kts | 78° |
| 2026-05-05 07:26 | 33.94654 | -118.42709 | 140 ft | 14 kts | 85° |
| 2026-05-05 07:26 | 33.94660 | -118.42601 | 140 ft | 17 kts | 85° |
| 2026-05-05 07:26 | 33.94674 | -118.42422 | 140 ft | 26 kts | 84° |
| 2026-05-05 07:27 | 33.94700 | -118.42158 | 140 ft | 36 kts | 81° |
| 2026-05-05 07:27 | 33.94741 | -118.41846 | 140 ft | 40 kts | 81° |
| 2026-05-05 07:27 | 33.94774 | -118.41510 | 140 ft | 38 kts | 86° |
| 2026-05-05 07:27 | 33.94805 | -118.41253 | 140 ft | 21 kts | 82° |
| 2026-05-05 07:28 | 33.94790 | -118.41132 | 140 ft | 10 kts | 148° |
| 2026-05-05 07:28 | 33.94753 | -118.41085 | 140 ft | 9 kts | 106° |
| 2026-05-05 07:28 | 33.94735 | -118.40970 | 140 ft | 14 kts | 101° |
| 2026-05-05 07:28 | 33.94712 | -118.40870 | 140 ft | 11 kts | 112° |
| 2026-05-05 07:29 | 33.94684 | -118.40812 | 140 ft | 0 kts | 124° |